FDX5132 PANC-RKSI
Flight info
| Callsign | FDX5132 |
|---|---|
| Flight time | N/A |
| Altitude | 32000 |
| Route | NODLE R220 NICHO/N0484F330 R220 NOSHO/N0481F340 R220 NATES/N0489F350 R220 NRKEY/N0483F360 R220 NUBDA/N0479F370 R220 NODAN/N0481F360 R217 SDE Y512 ELDAK/N0477F380 Y512 GTC Y142 SAMON Y14 SUGNO Y16 SAPRA G585 GUKDO GUKDO2E |
| Aircraft | MD11/H-SDE1E2E3FGHIJ2J3J4J5M1RWXY/LB1D1 |
Departure
| Time | N/A |
|---|---|
| Airport | Ted Stevens Anchorage International Airport (PANC) |
Arrival
| Time | 2026-05-07 11:07 |
|---|---|
| Airport | Incheon International Airport (RKSI) |
| Time | Latitude | Longitude | Altitude | Speed | Heading |
|---|---|---|---|---|---|
| 2026-05-07 03:58 | 60.13479 | -168.96732 | 34171 ft | 485 kts | 253° |
| 2026-05-07 03:58 | 60.12307 | -169.03033 | 34171 ft | 484 kts | 253° |
| 2026-05-07 03:59 | 60.09964 | -169.15663 | 34162 ft | 484 kts | 253° |
| 2026-05-07 03:59 | 60.07638 | -169.28261 | 34160 ft | 484 kts | 254° |
| 2026-05-07 04:00 | 60.05324 | -169.40884 | 34147 ft | 483 kts | 254° |
| 2026-05-07 04:00 | 60.03048 | -169.53400 | 34148 ft | 483 kts | 254° |
| 2026-05-07 04:01 | 60.00764 | -169.65981 | 34144 ft | 484 kts | 253° |
| 2026-05-07 04:01 | 59.98255 | -169.78444 | 34135 ft | 485 kts | 250° |
| 2026-05-07 04:02 | 59.95641 | -169.90834 | 34128 ft | 485 kts | 251° |
| 2026-05-07 04:02 | 59.93067 | -170.03242 | 34127 ft | 483 kts | 251° |
| 2026-05-07 04:03 | 59.90538 | -170.15614 | 34145 ft | 483 kts | 251° |
| 2026-05-07 04:03 | 59.88029 | -170.27956 | 34147 ft | 484 kts | 251° |
| 2026-05-07 04:04 | 59.85513 | -170.40359 | 34147 ft | 483 kts | 251° |
| 2026-05-07 04:04 | 59.83027 | -170.52667 | 34150 ft | 482 kts | 251° |
| 2026-05-07 04:05 | 59.80535 | -170.65051 | 34153 ft | 481 kts | 251° |
| 2026-05-07 04:05 | 59.78079 | -170.77313 | 34168 ft | 481 kts | 251° |
| 2026-05-07 04:06 | 59.75631 | -170.89600 | 34155 ft | 482 kts | 251° |
| 2026-05-07 04:06 | 59.73180 | -171.02006 | 34147 ft | 481 kts | 252° |
| 2026-05-07 04:07 | 59.70762 | -171.14285 | 34149 ft | 481 kts | 251° |
| 2026-05-07 04:07 | 59.68270 | -171.26494 | 34130 ft | 482 kts | 250° |
| 2026-05-07 04:08 | 59.65608 | -171.38625 | 34150 ft | 481 kts | 249° |
| 2026-05-07 04:08 | 59.62990 | -171.50714 | 34130 ft | 481 kts | 250° |
| 2026-05-07 04:09 | 59.60404 | -171.62897 | 34126 ft | 481 kts | 250° |
| 2026-05-07 04:09 | 59.57834 | -171.74942 | 34138 ft | 481 kts | 250° |
| 2026-05-07 04:10 | 59.55270 | -171.87123 | 34126 ft | 481 kts | 250° |
| 2026-05-07 04:10 | 59.52734 | -171.99263 | 34104 ft | 480 kts | 250° |
| 2026-05-07 04:11 | 59.50172 | -172.11320 | 34113 ft | 479 kts | 250° |
| 2026-05-07 04:11 | 59.47580 | -172.23383 | 34113 ft | 479 kts | 250° |
| 2026-05-07 04:12 | 59.45016 | -172.35364 | 34118 ft | 479 kts | 250° |
| 2026-05-07 04:12 | 59.42455 | -172.47404 | 34109 ft | 478 kts | 250° |
| 2026-05-07 04:13 | 59.39920 | -172.59383 | 34109 ft | 478 kts | 250° |
| 2026-05-07 04:13 | 59.37380 | -172.71419 | 34117 ft | 477 kts | 250° |
| 2026-05-07 04:14 | 59.34868 | -172.83374 | 34107 ft | 477 kts | 250° |
| 2026-05-07 04:14 | 59.32373 | -172.95314 | 34119 ft | 477 kts | 250° |
| 2026-05-07 04:15 | 59.29871 | -173.07344 | 34113 ft | 477 kts | 250° |
| 2026-05-07 04:15 | 59.27391 | -173.19318 | 34119 ft | 475 kts | 250° |
| 2026-05-07 04:16 | 59.24952 | -173.31194 | 34121 ft | 474 kts | 250° |
| 2026-05-07 04:16 | 59.22505 | -173.43124 | 34106 ft | 474 kts | 251° |
| 2026-05-07 04:17 | 59.19906 | -173.54907 | 34125 ft | 475 kts | 249° |
| 2026-05-07 04:17 | 59.17228 | -173.66637 | 34116 ft | 473 kts | 248° |
| 2026-05-07 04:18 | 59.14616 | -173.78290 | 34128 ft | 473 kts | 248° |
| 2026-05-07 04:18 | 59.12015 | -173.90019 | 34119 ft | 473 kts | 248° |
| 2026-05-07 04:19 | 59.09414 | -174.01769 | 34109 ft | 473 kts | 249° |
| 2026-05-07 04:19 | 59.06842 | -174.13469 | 34125 ft | 472 kts | 249° |
| 2026-05-07 04:20 | 59.04280 | -174.25142 | 34114 ft | 473 kts | 249° |
| 2026-05-07 04:20 | 59.01647 | -174.36822 | 34122 ft | 473 kts | 248° |
| 2026-05-07 04:21 | 58.97664 | -174.54251 | 34117 ft | 473 kts | 248° |
| 2026-05-07 04:21 | 58.95022 | -174.65860 | 34114 ft | 471 kts | 247° |
| 2026-05-07 04:22 | 58.92395 | -174.77469 | 34124 ft | 472 kts | 247° |
| 2026-05-07 04:22 | 58.89780 | -174.89059 | 34120 ft | 475 kts | 247° |
| 2026-05-07 04:23 | 58.87159 | -175.00726 | 34115 ft | 476 kts | 247° |
| 2026-05-07 04:23 | 58.84537 | -175.12440 | 34104 ft | 475 kts | 248° |
| 2026-05-07 04:24 | 58.81939 | -175.24086 | 34104 ft | 475 kts | 248° |
| 2026-05-07 04:24 | 58.79356 | -175.35718 | 34100 ft | 475 kts | 248° |
| 2026-05-07 04:25 | 58.76776 | -175.47409 | 34096 ft | 475 kts | 248° |
| 2026-05-07 04:25 | 58.74218 | -175.59068 | 34098 ft | 476 kts | 248° |
| 2026-05-07 04:26 | 58.71655 | -175.70781 | 34091 ft | 478 kts | 247° |
| 2026-05-07 04:26 | 58.68891 | -175.82355 | 34092 ft | 480 kts | 245° |
| 2026-05-07 04:27 | 58.66020 | -175.93898 | 34086 ft | 480 kts | 245° |
| 2026-05-07 04:27 | 58.63193 | -176.05428 | 34091 ft | 479 kts | 246° |
| 2026-05-07 04:28 | 58.60387 | -176.17024 | 34106 ft | 482 kts | 245° |
| 2026-05-07 04:28 | 58.57578 | -176.28702 | 34108 ft | 485 kts | 245° |
| 2026-05-07 04:29 | 58.54769 | -176.40378 | 34107 ft | 485 kts | 245° |
| 2026-05-07 04:29 | 58.51974 | -176.52034 | 34102 ft | 484 kts | 245° |
| 2026-05-07 04:30 | 58.49189 | -176.63696 | 34100 ft | 484 kts | 245° |
| 2026-05-07 04:30 | 58.46409 | -176.75385 | 34102 ft | 485 kts | 244° |
| 2026-05-07 04:31 | 58.43636 | -176.87125 | 34094 ft | 485 kts | 244° |
| 2026-05-07 04:31 | 58.40902 | -176.98718 | 34092 ft | 483 kts | 244° |
| 2026-05-07 04:32 | 58.38160 | -177.10426 | 34088 ft | 484 kts | 244° |
| 2026-05-07 04:32 | 58.35287 | -177.21936 | 34084 ft | 484 kts | 242° |
| 2026-05-07 04:33 | 58.32275 | -177.33350 | 34079 ft | 485 kts | 242° |
| 2026-05-07 04:33 | 58.29294 | -177.44759 | 34076 ft | 485 kts | 242° |
| 2026-05-07 04:34 | 58.26331 | -177.56253 | 34069 ft | 485 kts | 242° |
| 2026-05-07 04:34 | 58.23383 | -177.67738 | 34067 ft | 485 kts | 241° |
| 2026-05-07 04:35 | 58.20454 | -177.79169 | 34065 ft | 485 kts | 241° |
| 2026-05-07 04:35 | 58.17518 | -177.90655 | 34058 ft | 485 kts | 241° |
| 2026-05-07 04:36 | 58.14596 | -178.02124 | 34055 ft | 485 kts | 242° |
| 2026-05-07 04:36 | 58.11699 | -178.13531 | 34055 ft | 485 kts | 242° |
| 2026-05-07 04:37 | 58.08796 | -178.25037 | 34048 ft | 486 kts | 242° |
| 2026-05-07 04:37 | 58.05911 | -178.36504 | 34047 ft | 487 kts | 242° |
| 2026-05-07 04:38 | 58.03037 | -178.48007 | 34042 ft | 488 kts | 242° |
| 2026-05-07 04:38 | 58.00079 | -178.59499 | 34042 ft | 487 kts | 239° |
| 2026-05-07 04:39 | 57.96932 | -178.70767 | 34039 ft | 488 kts | 238° |
| 2026-05-07 04:39 | 57.93773 | -178.82075 | 34037 ft | 488 kts | 238° |
| 2026-05-07 04:40 | 57.90683 | -178.93294 | 34038 ft | 489 kts | 239° |
| 2026-05-07 04:40 | 57.87589 | -179.04613 | 34044 ft | 490 kts | 239° |
| 2026-05-07 04:41 | 57.84481 | -179.16020 | 34051 ft | 491 kts | 239° |
| 2026-05-07 04:41 | 57.81393 | -179.27370 | 34036 ft | 491 kts | 239° |
| 2026-05-07 04:42 | 57.78321 | -179.38696 | 34039 ft | 491 kts | 239° |
| 2026-05-07 04:42 | 57.75257 | -179.50041 | 34037 ft | 491 kts | 238° |
| 2026-05-07 04:43 | 57.72193 | -179.61398 | 34022 ft | 490 kts | 238° |
| 2026-05-07 04:43 | 57.69149 | -179.72768 | 34032 ft | 490 kts | 238° |
| 2026-05-07 04:44 | 57.66619 | -179.82214 | 34025 ft | 490 kts | 238° |
| 2026-05-07 04:44 | 57.63073 | -179.95450 | 34020 ft | 490 kts | 237° |
| 2026-05-07 04:45 | 57.59844 | 179.93497 | 34016 ft | 488 kts | 236° |
| 2026-05-07 04:45 | 57.56557 | 179.82433 | 34005 ft | 489 kts | 236° |
| 2026-05-07 04:46 | 57.53315 | 179.71378 | 34006 ft | 490 kts | 236° |
| 2026-05-07 04:46 | 57.50098 | 179.60286 | 34000 ft | 489 kts | 236° |
| 2026-05-07 04:47 | 57.46886 | 179.49197 | 33991 ft | 490 kts | 236° |
| 2026-05-07 04:47 | 57.43680 | 179.38127 | 33991 ft | 489 kts | 236° |
| 2026-05-07 04:48 | 57.40473 | 179.27016 | 33975 ft | 488 kts | 235° |
| 2026-05-07 04:48 | 57.37300 | 179.15993 | 33972 ft | 487 kts | 235° |
| 2026-05-07 04:49 | 57.34130 | 179.04930 | 33976 ft | 488 kts | 236° |
| 2026-05-07 04:49 | 57.30989 | 178.93901 | 33973 ft | 489 kts | 236° |
| 2026-05-07 04:50 | 57.27826 | 178.82800 | 33969 ft | 489 kts | 236° |
| 2026-05-07 04:50 | 57.24680 | 178.71670 | 33969 ft | 489 kts | 236° |
| 2026-05-07 04:51 | 57.21392 | 178.60800 | 33967 ft | 486 kts | 233° |
| 2026-05-07 04:51 | 57.18022 | 178.50089 | 33957 ft | 487 kts | 233° |
| 2026-05-07 04:52 | 57.14657 | 178.39270 | 33953 ft | 489 kts | 234° |
| 2026-05-07 04:52 | 57.11327 | 178.28441 | 33964 ft | 489 kts | 233° |
| 2026-05-07 04:53 | 57.07992 | 178.17543 | 33959 ft | 488 kts | 233° |
| 2026-05-07 04:53 | 57.04693 | 178.06766 | 33959 ft | 489 kts | 233° |
| 2026-05-07 04:54 | 57.01385 | 177.95938 | 33940 ft | 488 kts | 233° |
| 2026-05-07 04:54 | 56.98070 | 177.85060 | 33912 ft | 488 kts | 233° |
| 2026-05-07 04:55 | 56.94782 | 177.74225 | 33892 ft | 489 kts | 234° |
| 2026-05-07 04:55 | 56.91507 | 177.63373 | 33861 ft | 490 kts | 234° |
| 2026-05-07 04:56 | 56.88221 | 177.52487 | 33875 ft | 492 kts | 234° |
| 2026-05-07 04:56 | 56.84940 | 177.41510 | 33872 ft | 495 kts | 236° |
| 2026-05-07 04:57 | 56.81842 | 177.30255 | 33860 ft | 497 kts | 234° |
| 2026-05-07 04:57 | 56.78454 | 177.19440 | 33861 ft | 492 kts | 232° |
| 2026-05-07 04:58 | 56.74896 | 177.08824 | 33846 ft | 492 kts | 231° |
| 2026-05-07 04:58 | 56.71350 | 176.98221 | 33833 ft | 493 kts | 232° |
| 2026-05-07 04:59 | 56.67825 | 176.87532 | 33805 ft | 494 kts | 232° |
| 2026-05-07 04:59 | 56.64315 | 176.76845 | 33819 ft | 494 kts | 232° |
| 2026-05-07 05:00 | 56.60821 | 176.66193 | 33811 ft | 495 kts | 232° |
| 2026-05-07 05:00 | 56.57325 | 176.55507 | 33807 ft | 495 kts | 233° |
| 2026-05-07 05:01 | 56.53813 | 176.44750 | 33775 ft | 496 kts | 233° |
| 2026-05-07 05:01 | 56.50344 | 176.34094 | 33789 ft | 496 kts | 232° |
| 2026-05-07 05:02 | 56.46851 | 176.23305 | 33770 ft | 495 kts | 233° |
| 2026-05-07 05:02 | 56.43405 | 176.12654 | 33782 ft | 495 kts | 233° |
| 2026-05-07 05:03 | 56.39959 | 176.01939 | 33769 ft | 495 kts | 233° |
| 2026-05-07 05:03 | 56.36469 | 175.91243 | 33778 ft | 495 kts | 232° |
| 2026-05-07 05:04 | 56.32816 | 175.80829 | 33739 ft | 494 kts | 231° |
| 2026-05-07 05:04 | 56.29142 | 175.70409 | 33764 ft | 494 kts | 232° |
| 2026-05-07 05:05 | 56.25523 | 175.60016 | 33762 ft | 494 kts | 232° |
| 2026-05-07 05:05 | 56.21894 | 175.49530 | 33742 ft | 495 kts | 232° |
| 2026-05-07 05:06 | 56.18272 | 175.39052 | 33723 ft | 495 kts | 233° |
| 2026-05-07 05:06 | 56.14676 | 175.28624 | 33729 ft | 494 kts | 232° |
| 2026-05-07 05:07 | 56.11091 | 175.18214 | 33724 ft | 494 kts | 232° |
| 2026-05-07 05:07 | 56.07509 | 175.07791 | 33768 ft | 496 kts | 233° |
| 2026-05-07 05:08 | 56.03900 | 174.97232 | 33750 ft | 496 kts | 233° |
| 2026-05-07 05:08 | 56.00321 | 174.86754 | 33722 ft | 495 kts | 233° |
| 2026-05-07 05:09 | 55.96773 | 174.76314 | 33736 ft | 495 kts | 233° |
| 2026-05-07 05:09 | 55.93213 | 174.65903 | 33735 ft | 494 kts | 233° |
| 2026-05-07 05:10 | 55.89471 | 174.55684 | 33731 ft | 493 kts | 232° |
| 2026-05-07 05:10 | 55.85687 | 174.45499 | 33718 ft | 493 kts | 232° |
| 2026-05-07 05:11 | 55.81952 | 174.35333 | 33708 ft | 493 kts | 233° |
| 2026-05-07 05:11 | 55.78234 | 174.25136 | 33711 ft | 492 kts | 232° |
| 2026-05-07 05:12 | 55.74551 | 174.15021 | 33725 ft | 492 kts | 232° |
| 2026-05-07 05:12 | 55.70842 | 174.04816 | 33717 ft | 492 kts | 233° |
| 2026-05-07 05:13 | 55.67175 | 173.94708 | 33702 ft | 492 kts | 233° |
| 2026-05-07 05:13 | 55.63506 | 173.84558 | 33698 ft | 492 kts | 233° |
| 2026-05-07 05:14 | 55.59824 | 173.74345 | 33708 ft | 492 kts | 233° |
| 2026-05-07 05:14 | 55.56173 | 173.64195 | 33696 ft | 492 kts | 234° |
| 2026-05-07 05:15 | 55.52527 | 173.54031 | 33705 ft | 492 kts | 234° |
| 2026-05-07 05:15 | 55.48871 | 173.43831 | 33692 ft | 492 kts | 234° |
| 2026-05-07 05:16 | 55.45089 | 173.33874 | 33697 ft | 491 kts | 232° |
| 2026-05-07 05:16 | 55.41225 | 173.23965 | 33697 ft | 491 kts | 232° |
| 2026-05-07 05:17 | 55.37399 | 173.14069 | 33691 ft | 491 kts | 232° |
| 2026-05-07 05:17 | 55.33603 | 173.04179 | 33688 ft | 490 kts | 233° |
| 2026-05-07 05:18 | 55.29813 | 172.94284 | 33672 ft | 491 kts | 233° |
| 2026-05-07 05:18 | 55.26012 | 172.84341 | 33671 ft | 491 kts | 233° |
| 2026-05-07 05:19 | 55.22246 | 172.74469 | 33655 ft | 491 kts | 233° |
| 2026-05-07 05:19 | 55.18466 | 172.64543 | 33657 ft | 491 kts | 234° |
| 2026-05-07 05:20 | 55.14696 | 172.54604 | 33658 ft | 491 kts | 234° |
| 2026-05-07 05:20 | 55.10956 | 172.44734 | 33648 ft | 490 kts | 234° |
| 2026-05-07 05:21 | 55.05345 | 172.29846 | 33632 ft | 490 kts | 234° |
| 2026-05-07 05:22 | 55.01598 | 172.19991 | 33632 ft | 490 kts | 233° |
| 2026-05-07 05:22 | 54.97740 | 172.10263 | 33627 ft | 490 kts | 233° |
| 2026-05-07 05:23 | 54.93982 | 172.00406 | 33626 ft | 490 kts | 236° |
| 2026-05-07 05:23 | 54.90167 | 171.90625 | 33640 ft | 487 kts | 230° |
| 2026-05-07 05:24 | 54.85880 | 171.81632 | 33647 ft | 486 kts | 227° |
| 2026-05-07 05:24 | 54.81470 | 171.72775 | 33647 ft | 485 kts | 228° |
| 2026-05-07 05:25 | 54.77085 | 171.63831 | 33648 ft | 485 kts | 228° |
| 2026-05-07 05:25 | 54.72764 | 171.54929 | 33649 ft | 485 kts | 229° |
| 2026-05-07 05:26 | 54.68442 | 171.46028 | 33647 ft | 484 kts | 229° |
| 2026-05-07 05:26 | 54.64105 | 171.37083 | 33646 ft | 485 kts | 229° |
| 2026-05-07 05:27 | 54.59786 | 171.28154 | 33644 ft | 484 kts | 228° |
| 2026-05-07 05:27 | 54.55491 | 171.19266 | 33642 ft | 483 kts | 229° |
| 2026-05-07 05:28 | 54.51215 | 171.10397 | 33642 ft | 482 kts | 229° |
| 2026-05-07 05:28 | 54.46958 | 171.01558 | 33636 ft | 482 kts | 229° |
| 2026-05-07 05:29 | 54.42688 | 170.92677 | 33633 ft | 481 kts | 229° |
| 2026-05-07 05:29 | 54.38432 | 170.83813 | 33629 ft | 480 kts | 230° |
| 2026-05-07 05:30 | 54.34172 | 170.75026 | 33621 ft | 480 kts | 228° |
| 2026-05-07 05:30 | 54.29779 | 170.66464 | 33620 ft | 480 kts | 228° |
| 2026-05-07 05:31 | 54.25402 | 170.57938 | 33616 ft | 480 kts | 228° |
| 2026-05-07 05:31 | 54.21737 | 170.50745 | 33613 ft | 480 kts | 229° |
| 2026-05-07 05:32 | 54.16682 | 170.40784 | 33607 ft | 479 kts | 229° |
| 2026-05-07 05:32 | 54.12303 | 170.32150 | 33609 ft | 480 kts | 228° |
| 2026-05-07 05:33 | 54.07955 | 170.23575 | 33608 ft | 480 kts | 229° |
| 2026-05-07 05:33 | 54.03629 | 170.15030 | 33606 ft | 479 kts | 229° |
| 2026-05-07 05:34 | 53.99277 | 170.06398 | 33602 ft | 479 kts | 229° |
| 2026-05-07 05:34 | 53.94959 | 169.97839 | 33601 ft | 479 kts | 229° |
| 2026-05-07 05:35 | 53.90657 | 169.89284 | 33603 ft | 478 kts | 230° |
| 2026-05-07 05:35 | 53.86367 | 169.80748 | 33604 ft | 478 kts | 230° |
| 2026-05-07 05:36 | 53.82068 | 169.72177 | 33600 ft | 478 kts | 230° |
| 2026-05-07 05:36 | 53.77699 | 169.63742 | 33601 ft | 477 kts | 229° |
| 2026-05-07 05:37 | 53.73304 | 169.55382 | 33604 ft | 477 kts | 229° |
| 2026-05-07 05:37 | 53.68971 | 169.47006 | 33608 ft | 477 kts | 230° |
| 2026-05-07 05:38 | 53.65341 | 169.39987 | 33598 ft | 477 kts | 231° |
| 2026-05-07 05:38 | 53.61577 | 169.30818 | 33610 ft | 476 kts | 240° |
| 2026-05-07 05:39 | 53.57935 | 169.19412 | 33615 ft | 475 kts | 242° |
| 2026-05-07 05:39 | 53.54794 | 169.09700 | 33610 ft | 474 kts | 241° |
| 2026-05-07 05:40 | 53.51601 | 169.00001 | 33613 ft | 474 kts | 241° |
| 2026-05-07 05:40 | 53.48413 | 168.90314 | 33621 ft | 474 kts | 242° |
| 2026-05-07 05:41 | 53.45251 | 168.80656 | 33630 ft | 474 kts | 242° |
| 2026-05-07 05:41 | 53.42086 | 168.70956 | 33636 ft | 473 kts | 242° |
| 2026-05-07 05:42 | 53.38957 | 168.61325 | 33633 ft | 472 kts | 242° |
| 2026-05-07 05:42 | 53.35847 | 168.51698 | 33631 ft | 471 kts | 243° |
| 2026-05-07 05:43 | 53.32734 | 168.42042 | 33628 ft | 471 kts | 243° |
| 2026-05-07 05:43 | 53.29637 | 168.32428 | 33625 ft | 471 kts | 242° |
| 2026-05-07 05:44 | 53.26407 | 168.22980 | 33628 ft | 471 kts | 240° |
| 2026-05-07 05:44 | 53.23112 | 168.13539 | 33634 ft | 470 kts | 241° |
| 2026-05-07 05:45 | 53.19874 | 168.04198 | 33630 ft | 469 kts | 241° |
| 2026-05-07 05:45 | 53.16636 | 167.94781 | 33631 ft | 468 kts | 242° |
| 2026-05-07 05:46 | 53.13409 | 167.85385 | 33625 ft | 468 kts | 242° |
| 2026-05-07 05:46 | 53.10190 | 167.75992 | 33625 ft | 468 kts | 242° |
| 2026-05-07 05:47 | 53.06976 | 167.66579 | 33627 ft | 468 kts | 242° |
| 2026-05-07 05:47 | 53.04303 | 167.58746 | 33627 ft | 467 kts | 242° |
| 2026-05-07 05:48 | 53.00589 | 167.47824 | 33631 ft | 466 kts | 243° |
| 2026-05-07 05:48 | 52.97427 | 167.38483 | 33630 ft | 465 kts | 243° |
| 2026-05-07 05:49 | 52.94262 | 167.29128 | 33634 ft | 465 kts | 242° |
| 2026-05-07 05:49 | 52.91128 | 167.19829 | 33634 ft | 465 kts | 243° |
| 2026-05-07 05:50 | 52.87970 | 167.10492 | 33627 ft | 465 kts | 242° |
| 2026-05-07 05:50 | 52.84669 | 167.01372 | 33631 ft | 464 kts | 241° |
| 2026-05-07 05:51 | 52.81336 | 166.92267 | 33627 ft | 464 kts | 241° |
| 2026-05-07 05:51 | 52.78021 | 166.83127 | 33630 ft | 464 kts | 242° |
| 2026-05-07 05:52 | 52.74734 | 166.74013 | 33633 ft | 463 kts | 242° |
| 2026-05-07 05:52 | 52.71457 | 166.64897 | 33638 ft | 462 kts | 242° |
| 2026-05-07 05:53 | 52.68205 | 166.55838 | 33644 ft | 461 kts | 242° |
| 2026-05-07 05:53 | 52.64966 | 166.46796 | 33648 ft | 461 kts | 242° |
| 2026-05-07 05:54 | 52.61717 | 166.37709 | 33658 ft | 460 kts | 243° |
| 2026-05-07 05:54 | 52.58496 | 166.28665 | 33665 ft | 459 kts | 242° |
| 2026-05-07 05:55 | 52.55284 | 166.19636 | 33669 ft | 459 kts | 242° |
| 2026-05-07 05:55 | 52.52082 | 166.10612 | 33667 ft | 458 kts | 243° |
| 2026-05-07 05:56 | 52.48903 | 166.01627 | 33666 ft | 457 kts | 243° |
| 2026-05-07 05:56 | 52.45700 | 165.92616 | 33664 ft | 457 kts | 242° |
| 2026-05-07 05:57 | 52.42369 | 165.83810 | 33663 ft | 457 kts | 241° |
| 2026-05-07 05:57 | 52.38998 | 165.75015 | 33664 ft | 456 kts | 241° |
| 2026-05-07 05:58 | 52.35661 | 165.66225 | 33671 ft | 456 kts | 242° |
| 2026-05-07 05:58 | 52.32335 | 165.57414 | 33676 ft | 454 kts | 242° |
| 2026-05-07 05:59 | 52.29046 | 165.48679 | 33679 ft | 453 kts | 242° |
| 2026-05-07 05:59 | 52.25758 | 165.39929 | 33681 ft | 453 kts | 242° |
| 2026-05-07 06:00 | 52.22486 | 165.31218 | 33683 ft | 453 kts | 242° |
| 2026-05-07 06:00 | 52.19208 | 165.22475 | 33680 ft | 452 kts | 242° |
| 2026-05-07 06:01 | 52.15942 | 165.13724 | 33676 ft | 451 kts | 242° |
| 2026-05-07 06:01 | 52.12701 | 165.05029 | 33678 ft | 449 kts | 243° |
| 2026-05-07 06:02 | 52.09466 | 164.96343 | 33686 ft | 448 kts | 243° |
| 2026-05-07 06:02 | 52.06279 | 164.87743 | 33692 ft | 447 kts | 243° |
| 2026-05-07 06:03 | 52.03061 | 164.79071 | 33701 ft | 447 kts | 243° |
| 2026-05-07 06:03 | 51.99746 | 164.70552 | 33698 ft | 447 kts | 241° |
| 2026-05-07 06:04 | 51.96381 | 164.62118 | 33702 ft | 446 kts | 242° |
| 2026-05-07 06:04 | 51.93026 | 164.53653 | 33704 ft | 445 kts | 242° |
| 2026-05-07 06:05 | 51.89727 | 164.45279 | 33729 ft | 444 kts | 242° |
| 2026-05-07 06:05 | 51.86419 | 164.36868 | 33717 ft | 442 kts | 242° |
| 2026-05-07 06:06 | 51.83693 | 164.29921 | 33735 ft | 442 kts | 242° |
| 2026-05-07 06:06 | 51.79865 | 164.20149 | 33741 ft | 440 kts | 242° |
| 2026-05-07 06:07 | 51.76617 | 164.11838 | 33749 ft | 439 kts | 242° |
| 2026-05-07 06:07 | 51.73378 | 164.03520 | 33732 ft | 437 kts | 243° |
| 2026-05-07 06:08 | 51.70149 | 163.95239 | 33739 ft | 438 kts | 243° |
| 2026-05-07 06:08 | 51.66948 | 163.86987 | 33724 ft | 436 kts | 243° |
| 2026-05-07 06:09 | 51.63750 | 163.78740 | 33730 ft | 433 kts | 243° |
| 2026-05-07 06:09 | 51.60657 | 163.70458 | 33720 ft | 431 kts | 245° |
| 2026-05-07 06:10 | 51.57543 | 163.62241 | 33739 ft | 433 kts | 243° |
| 2026-05-07 06:10 | 51.54243 | 163.54224 | 33736 ft | 431 kts | 242° |
| 2026-05-07 06:11 | 51.50921 | 163.46258 | 33728 ft | 430 kts | 242° |
| 2026-05-07 06:11 | 51.47617 | 163.38303 | 33736 ft | 429 kts | 243° |
| 2026-05-07 06:12 | 51.44337 | 163.30366 | 33775 ft | 429 kts | 242° |
| 2026-05-07 06:12 | 51.41077 | 163.22452 | 33781 ft | 426 kts | 242° |
| 2026-05-07 06:13 | 51.37830 | 163.14572 | 33776 ft | 423 kts | 243° |
| 2026-05-07 06:13 | 51.34602 | 163.06712 | 33767 ft | 423 kts | 243° |
| 2026-05-07 06:14 | 51.31375 | 162.98854 | 33794 ft | 422 kts | 243° |
| 2026-05-07 06:14 | 51.28207 | 162.91112 | 33756 ft | 419 kts | 243° |
| 2026-05-07 06:15 | 51.25021 | 162.83310 | 33757 ft | 417 kts | 243° |
| 2026-05-07 06:15 | 51.21872 | 162.75583 | 33773 ft | 417 kts | 244° |
| 2026-05-07 06:16 | 51.18733 | 162.67882 | 33765 ft | 414 kts | 244° |
| 2026-05-07 06:16 | 51.15626 | 162.60213 | 33742 ft | 412 kts | 244° |
| 2026-05-07 06:17 | 51.12522 | 162.52586 | 33756 ft | 414 kts | 244° |
| 2026-05-07 06:17 | 51.09312 | 162.45035 | 33750 ft | 413 kts | 243° |
| 2026-05-07 06:18 | 51.06054 | 162.37560 | 33789 ft | 413 kts | 243° |
| 2026-05-07 06:18 | 51.02821 | 162.30084 | 33762 ft | 410 kts | 243° |
| 2026-05-07 06:19 | 50.99606 | 162.22617 | 33758 ft | 411 kts | 243° |
| 2026-05-07 06:19 | 50.96388 | 162.15132 | 33748 ft | 410 kts | 243° |
| 2026-05-07 06:20 | 50.93205 | 162.07721 | 33754 ft | 408 kts | 243° |
| 2026-05-07 06:20 | 50.90029 | 162.00325 | 33770 ft | 406 kts | 244° |
| 2026-05-07 06:21 | 50.86857 | 161.92920 | 33770 ft | 406 kts | 244° |
| 2026-05-07 06:21 | 50.83713 | 161.85545 | 33753 ft | 405 kts | 244° |
| 2026-05-07 06:22 | 50.80572 | 161.78188 | 33775 ft | 402 kts | 243° |
| 2026-05-07 06:22 | 50.75938 | 161.67291 | 33769 ft | 400 kts | 244° |
| 2026-05-07 06:23 | 50.72834 | 161.60002 | 33779 ft | 403 kts | 244° |
| 2026-05-07 06:23 | 50.69735 | 161.52686 | 33794 ft | 401 kts | 244° |
| 2026-05-07 06:24 | 50.66651 | 161.45419 | 33819 ft | 400 kts | 244° |
| 2026-05-07 06:24 | 50.63504 | 161.38223 | 33801 ft | 401 kts | 244° |
| 2026-05-07 06:25 | 50.60268 | 161.31062 | 33809 ft | 401 kts | 243° |
| 2026-05-07 06:25 | 50.57082 | 161.23987 | 33812 ft | 397 kts | 243° |
| 2026-05-07 06:26 | 50.53907 | 161.16898 | 33821 ft | 396 kts | 244° |
| 2026-05-07 06:26 | 50.50762 | 161.09850 | 33824 ft | 397 kts | 244° |
| 2026-05-07 06:27 | 50.47583 | 161.02760 | 33834 ft | 395 kts | 244° |
| 2026-05-07 06:27 | 50.44468 | 160.95776 | 33841 ft | 393 kts | 244° |
| 2026-05-07 06:28 | 50.41357 | 160.88773 | 33855 ft | 392 kts | 244° |
| 2026-05-07 06:28 | 50.38238 | 160.81767 | 33837 ft | 391 kts | 244° |
| 2026-05-07 06:29 | 50.35149 | 160.74815 | 33832 ft | 389 kts | 244° |
| 2026-05-07 06:29 | 50.32089 | 160.67926 | 33813 ft | 388 kts | 245° |
| 2026-05-07 06:30 | 50.29039 | 160.61011 | 33842 ft | 389 kts | 244° |
| 2026-05-07 06:30 | 50.25960 | 160.54076 | 33840 ft | 388 kts | 245° |
| 2026-05-07 06:31 | 50.22919 | 160.47177 | 33813 ft | 385 kts | 245° |
| 2026-05-07 06:31 | 50.19946 | 160.40292 | 33825 ft | 382 kts | 246° |
| 2026-05-07 06:32 | 50.16989 | 160.33409 | 33843 ft | 383 kts | 243° |
| 2026-05-07 06:32 | 50.13876 | 160.26694 | 33868 ft | 386 kts | 242° |
| 2026-05-07 06:33 | 50.10704 | 160.19971 | 33838 ft | 384 kts | 242° |
| 2026-05-07 06:33 | 50.07565 | 160.13290 | 33854 ft | 383 kts | 243° |
| 2026-05-07 06:34 | 50.04436 | 160.06625 | 33850 ft | 382 kts | 243° |
| 2026-05-07 06:34 | 50.01321 | 159.99973 | 33863 ft | 380 kts | 243° |
| 2026-05-07 06:35 | 49.98235 | 159.93365 | 33866 ft | 379 kts | 244° |
| 2026-05-07 06:35 | 49.95153 | 159.86762 | 33866 ft | 381 kts | 244° |
| 2026-05-07 06:36 | 49.92060 | 159.80116 | 33883 ft | 380 kts | 243° |
| 2026-05-07 06:36 | 49.88982 | 159.73508 | 33868 ft | 379 kts | 243° |
| 2026-05-07 06:37 | 49.85902 | 159.66878 | 33872 ft | 379 kts | 244° |
| 2026-05-07 06:37 | 49.82847 | 159.60269 | 33869 ft | 381 kts | 243° |
| 2026-05-07 06:38 | 49.79763 | 159.53633 | 33867 ft | 380 kts | 244° |
| 2026-05-07 06:38 | 49.76688 | 159.46980 | 33866 ft | 379 kts | 244° |
| 2026-05-07 06:39 | 49.73631 | 159.40373 | 33861 ft | 378 kts | 244° |
| 2026-05-07 06:39 | 49.70601 | 159.33797 | 33863 ft | 380 kts | 244° |
| 2026-05-07 06:40 | 49.67596 | 159.27092 | 33862 ft | 381 kts | 243° |
| 2026-05-07 06:40 | 49.64406 | 159.20548 | 33857 ft | 382 kts | 242° |
| 2026-05-07 06:41 | 49.61156 | 159.14098 | 33856 ft | 384 kts | 242° |
| 2026-05-07 06:41 | 49.58424 | 159.08675 | 33856 ft | 385 kts | 242° |
| 2026-05-07 06:42 | 49.54616 | 159.01097 | 33848 ft | 385 kts | 242° |
| 2026-05-07 06:42 | 49.51355 | 158.94589 | 33854 ft | 385 kts | 242° |
| 2026-05-07 06:43 | 49.48095 | 158.88086 | 33842 ft | 384 kts | 242° |
| 2026-05-07 06:43 | 49.44849 | 158.81604 | 33857 ft | 386 kts | 242° |
| 2026-05-07 06:44 | 49.41591 | 158.75090 | 33845 ft | 385 kts | 242° |
| 2026-05-07 06:44 | 49.38325 | 158.68545 | 33856 ft | 385 kts | 242° |
| 2026-05-07 06:45 | 49.35085 | 158.62050 | 33853 ft | 385 kts | 242° |
| 2026-05-07 06:45 | 49.31856 | 158.55566 | 33855 ft | 385 kts | 242° |
| 2026-05-07 06:46 | 49.28620 | 158.49065 | 33852 ft | 386 kts | 243° |
| 2026-05-07 06:46 | 49.25371 | 158.42541 | 33846 ft | 386 kts | 242° |
| 2026-05-07 06:47 | 49.22117 | 158.35991 | 33853 ft | 386 kts | 243° |
| 2026-05-07 06:47 | 49.18894 | 158.29480 | 33862 ft | 387 kts | 242° |
| 2026-05-07 06:48 | 49.15590 | 158.23003 | 33874 ft | 389 kts | 240° |
| 2026-05-07 06:48 | 49.12197 | 158.16565 | 33865 ft | 390 kts | 240° |
| 2026-05-07 06:49 | 49.08816 | 158.10110 | 33858 ft | 390 kts | 240° |
| 2026-05-07 06:49 | 49.05465 | 158.03687 | 33848 ft | 389 kts | 240° |
| 2026-05-07 06:50 | 49.02090 | 157.97223 | 33858 ft | 388 kts | 241° |
| 2026-05-07 06:50 | 48.98756 | 157.90820 | 33854 ft | 389 kts | 240° |
| 2026-05-07 06:51 | 48.95407 | 157.84387 | 33870 ft | 389 kts | 240° |
| 2026-05-07 06:51 | 48.92057 | 157.77939 | 33863 ft | 389 kts | 241° |
| 2026-05-07 06:52 | 48.88722 | 157.71515 | 33865 ft | 388 kts | 240° |
| 2026-05-07 06:52 | 48.85386 | 157.65071 | 33871 ft | 389 kts | 241° |
| 2026-05-07 06:53 | 48.82058 | 157.58658 | 33859 ft | 388 kts | 240° |
| 2026-05-07 06:53 | 48.78735 | 157.52203 | 33870 ft | 389 kts | 241° |
| 2026-05-07 06:54 | 48.75398 | 157.45767 | 33869 ft | 389 kts | 241° |
| 2026-05-07 06:54 | 48.72083 | 157.39334 | 33867 ft | 389 kts | 241° |
| 2026-05-07 06:55 | 48.68758 | 157.32877 | 33871 ft | 390 kts | 240° |
| 2026-05-07 06:55 | 48.65421 | 157.26468 | 33877 ft | 392 kts | 240° |
| 2026-05-07 06:56 | 48.61954 | 157.20084 | 33873 ft | 393 kts | 239° |
| 2026-05-07 06:56 | 48.58497 | 157.13737 | 33879 ft | 394 kts | 239° |
| 2026-05-07 06:57 | 48.55037 | 157.07361 | 33868 ft | 393 kts | 240° |
| 2026-05-07 06:57 | 48.51577 | 157.00964 | 33869 ft | 393 kts | 240° |
| 2026-05-07 06:58 | 48.48151 | 156.94609 | 33865 ft | 393 kts | 239° |
| 2026-05-07 06:58 | 48.44711 | 156.88246 | 33862 ft | 392 kts | 240° |
| 2026-05-07 06:59 | 48.41283 | 156.81885 | 33863 ft | 393 kts | 240° |
| 2026-05-07 06:59 | 48.37850 | 156.75514 | 33861 ft | 393 kts | 240° |
| 2026-05-07 07:00 | 48.34393 | 156.69093 | 33869 ft | 394 kts | 239° |
| 2026-05-07 07:00 | 48.30970 | 156.62721 | 33859 ft | 394 kts | 240° |
| 2026-05-07 07:01 | 48.27544 | 156.56329 | 33857 ft | 394 kts | 239° |
| 2026-05-07 07:01 | 48.24115 | 156.49956 | 33852 ft | 395 kts | 240° |
| 2026-05-07 07:02 | 48.20693 | 156.43536 | 33861 ft | 394 kts | 239° |
| 2026-05-07 07:02 | 48.17262 | 156.37152 | 33863 ft | 394 kts | 240° |
| 2026-05-07 07:03 | 48.13833 | 156.30737 | 33863 ft | 395 kts | 239° |
| 2026-05-07 07:03 | 48.10323 | 156.24449 | 33869 ft | 397 kts | 237° |
| 2026-05-07 07:04 | 48.06768 | 156.18161 | 33866 ft | 397 kts | 238° |
| 2026-05-07 07:04 | 48.03196 | 156.11807 | 33867 ft | 397 kts | 238° |
| 2026-05-07 07:05 | 47.99672 | 156.05521 | 33858 ft | 397 kts | 238° |
| 2026-05-07 07:05 | 47.96144 | 155.99220 | 33853 ft | 397 kts | 238° |
| 2026-05-07 07:06 | 47.92623 | 155.92935 | 33843 ft | 396 kts | 238° |
| 2026-05-07 07:06 | 47.89109 | 155.86653 | 33840 ft | 397 kts | 238° |
| 2026-05-07 07:07 | 47.85571 | 155.80318 | 33851 ft | 398 kts | 238° |
| 2026-05-07 07:07 | 47.82057 | 155.74011 | 33838 ft | 397 kts | 238° |
| 2026-05-07 07:08 | 47.78531 | 155.67685 | 33847 ft | 397 kts | 238° |
| 2026-05-07 07:08 | 47.75608 | 155.62427 | 33842 ft | 398 kts | 238° |
| 2026-05-07 07:09 | 47.71505 | 155.55045 | 33839 ft | 398 kts | 238° |
| 2026-05-07 07:09 | 47.67999 | 155.48761 | 33834 ft | 398 kts | 238° |
| 2026-05-07 07:10 | 47.64497 | 155.42421 | 33833 ft | 398 kts | 238° |
| 2026-05-07 07:10 | 47.60976 | 155.36076 | 33843 ft | 398 kts | 238° |
| 2026-05-07 07:11 | 47.57397 | 155.29860 | 33847 ft | 401 kts | 236° |
| 2026-05-07 07:11 | 47.53730 | 155.23607 | 33846 ft | 402 kts | 237° |
| 2026-05-07 07:12 | 47.50095 | 155.17360 | 33837 ft | 403 kts | 237° |
| 2026-05-07 07:12 | 47.46462 | 155.11093 | 33837 ft | 401 kts | 237° |
| 2026-05-07 07:13 | 47.42847 | 155.04869 | 33837 ft | 402 kts | 237° |
| 2026-05-07 07:13 | 47.39225 | 154.98616 | 33831 ft | 403 kts | 237° |
| 2026-05-07 07:14 | 47.35589 | 154.92334 | 33827 ft | 404 kts | 237° |
| 2026-05-07 07:14 | 47.31948 | 154.86040 | 33833 ft | 404 kts | 237° |
| 2026-05-07 07:15 | 47.28330 | 154.79768 | 33831 ft | 403 kts | 237° |
| 2026-05-07 07:15 | 47.24730 | 154.73543 | 33825 ft | 401 kts | 237° |
| 2026-05-07 07:16 | 47.21132 | 154.67264 | 33825 ft | 402 kts | 237° |
| 2026-05-07 07:16 | 47.17506 | 154.60996 | 33840 ft | 402 kts | 237° |
| 2026-05-07 07:17 | 47.14520 | 154.55795 | 33834 ft | 402 kts | 238° |
| 2026-05-07 07:17 | 47.10300 | 154.48467 | 33819 ft | 403 kts | 237° |
| 2026-05-07 07:18 | 47.06734 | 154.42246 | 33809 ft | 402 kts | 237° |
| 2026-05-07 07:18 | 47.03057 | 154.36098 | 33812 ft | 402 kts | 236° |
| 2026-05-07 07:19 | 46.99332 | 154.29941 | 33834 ft | 403 kts | 236° |
| 2026-05-07 07:19 | 46.95660 | 154.23851 | 33832 ft | 402 kts | 236° |
| 2026-05-07 07:20 | 46.91956 | 154.17686 | 33832 ft | 403 kts | 236° |
| 2026-05-07 07:20 | 46.88277 | 154.11546 | 33822 ft | 402 kts | 236° |
| 2026-05-07 07:21 | 46.84607 | 154.05423 | 33834 ft | 403 kts | 236° |
| 2026-05-07 07:21 | 46.80922 | 153.99274 | 33830 ft | 403 kts | 236° |
| 2026-05-07 07:22 | 46.77242 | 153.93124 | 33831 ft | 402 kts | 236° |
| 2026-05-07 07:22 | 46.73600 | 153.87021 | 33824 ft | 402 kts | 236° |
| 2026-05-07 07:23 | 46.69936 | 153.80896 | 33825 ft | 402 kts | 236° |
| 2026-05-07 07:23 | 46.66267 | 153.74725 | 33822 ft | 403 kts | 236° |
| 2026-05-07 07:24 | 46.62605 | 153.68591 | 33831 ft | 403 kts | 236° |
| 2026-05-07 07:24 | 46.58957 | 153.62456 | 33828 ft | 403 kts | 237° |
| 2026-05-07 07:25 | 46.53451 | 153.53218 | 33822 ft | 403 kts | 237° |
| 2026-05-07 07:26 | 46.49781 | 153.47121 | 33818 ft | 404 kts | 236° |
| 2026-05-07 07:26 | 46.46040 | 153.41093 | 33819 ft | 404 kts | 236° |
| 2026-05-07 07:27 | 46.42310 | 153.35004 | 33820 ft | 404 kts | 236° |
| 2026-05-07 07:27 | 46.38574 | 153.28932 | 33822 ft | 404 kts | 236° |
| 2026-05-07 07:28 | 46.34861 | 153.22862 | 33822 ft | 404 kts | 236° |
| 2026-05-07 07:28 | 46.31132 | 153.16774 | 33817 ft | 404 kts | 236° |
| 2026-05-07 07:29 | 46.27436 | 153.10728 | 33823 ft | 404 kts | 236° |
| 2026-05-07 07:29 | 46.23757 | 153.04623 | 33806 ft | 401 kts | 238° |
| 2026-05-07 07:30 | 46.20322 | 152.98286 | 33817 ft | 403 kts | 237° |
| 2026-05-07 07:30 | 46.16614 | 152.92213 | 33827 ft | 406 kts | 235° |
| 2026-05-07 07:31 | 46.12772 | 152.86224 | 33814 ft | 406 kts | 234° |
| 2026-05-07 07:31 | 46.08939 | 152.80275 | 33827 ft | 405 kts | 234° |
| 2026-05-07 07:32 | 46.05142 | 152.74367 | 33827 ft | 405 kts | 234° |
| 2026-05-07 07:32 | 46.01334 | 152.68414 | 33827 ft | 406 kts | 234° |
| 2026-05-07 07:33 | 45.97516 | 152.62447 | 33822 ft | 405 kts | 234° |
| 2026-05-07 07:33 | 45.93712 | 152.56493 | 33817 ft | 406 kts | 235° |
| 2026-05-07 07:34 | 45.89904 | 152.50522 | 33813 ft | 405 kts | 234° |
| 2026-05-07 07:34 | 45.86108 | 152.44565 | 33813 ft | 406 kts | 235° |
| 2026-05-07 07:35 | 45.82299 | 152.38586 | 33821 ft | 406 kts | 235° |
| 2026-05-07 07:35 | 45.78511 | 152.32625 | 33823 ft | 406 kts | 234° |
| 2026-05-07 07:36 | 45.74706 | 152.26649 | 33826 ft | 406 kts | 234° |
| 2026-05-07 07:36 | 45.70931 | 152.20694 | 33831 ft | 406 kts | 234° |
| 2026-05-07 07:37 | 45.67147 | 152.14745 | 33831 ft | 407 kts | 235° |
| 2026-05-07 07:37 | 45.63337 | 152.08710 | 33820 ft | 408 kts | 234° |
| 2026-05-07 07:38 | 45.59530 | 152.02805 | 33823 ft | 408 kts | 234° |
| 2026-05-07 07:38 | 45.55627 | 151.96933 | 33818 ft | 408 kts | 234° |
| 2026-05-07 07:39 | 45.51731 | 151.91061 | 33818 ft | 408 kts | 234° |
| 2026-05-07 07:39 | 45.47863 | 151.85199 | 33823 ft | 409 kts | 234° |
| 2026-05-07 07:40 | 45.43974 | 151.79315 | 33829 ft | 408 kts | 234° |
| 2026-05-07 07:40 | 45.40097 | 151.73439 | 33828 ft | 408 kts | 234° |
| 2026-05-07 07:41 | 45.36251 | 151.67592 | 33826 ft | 407 kts | 234° |
| 2026-05-07 07:41 | 45.32387 | 151.61729 | 33826 ft | 408 kts | 234° |
| 2026-05-07 07:42 | 45.28531 | 151.55853 | 33815 ft | 408 kts | 234° |
| 2026-05-07 07:42 | 45.24666 | 151.49985 | 33819 ft | 407 kts | 234° |
| 2026-05-07 07:43 | 45.20802 | 151.44095 | 33828 ft | 407 kts | 234° |
| 2026-05-07 07:43 | 45.16952 | 151.38237 | 33819 ft | 406 kts | 234° |
| 2026-05-07 07:44 | 45.13121 | 151.32379 | 33836 ft | 406 kts | 234° |
| 2026-05-07 07:44 | 45.09295 | 151.26550 | 33843 ft | 408 kts | 234° |
| 2026-05-07 07:45 | 45.05434 | 151.20653 | 33834 ft | 407 kts | 234° |
| 2026-05-07 07:45 | 45.01570 | 151.14891 | 33829 ft | 406 kts | 233° |
| 2026-05-07 07:46 | 44.97639 | 151.09160 | 33834 ft | 406 kts | 233° |
| 2026-05-07 07:46 | 44.93722 | 151.03433 | 33835 ft | 406 kts | 233° |
| 2026-05-07 07:47 | 44.89831 | 150.97722 | 33836 ft | 407 kts | 233° |
| 2026-05-07 07:47 | 44.85907 | 150.91962 | 33835 ft | 407 kts | 233° |
| 2026-05-07 07:48 | 44.82651 | 150.87167 | 33826 ft | 408 kts | 233° |
| 2026-05-07 07:48 | 44.78101 | 150.80470 | 33840 ft | 408 kts | 233° |
| 2026-05-07 07:49 | 44.74180 | 150.74693 | 33833 ft | 407 kts | 233° |
| 2026-05-07 07:49 | 44.70277 | 150.68948 | 33826 ft | 407 kts | 233° |
| 2026-05-07 07:50 | 44.66380 | 150.63197 | 33825 ft | 407 kts | 233° |
| 2026-05-07 07:50 | 44.62503 | 150.57477 | 33835 ft | 409 kts | 233° |
| 2026-05-07 07:51 | 44.58581 | 150.51682 | 33831 ft | 408 kts | 233° |
| 2026-05-07 07:51 | 44.54702 | 150.45944 | 33838 ft | 407 kts | 233° |
| 2026-05-07 07:52 | 44.50805 | 150.40175 | 33837 ft | 408 kts | 233° |
| 2026-05-07 07:52 | 44.46921 | 150.34435 | 33838 ft | 409 kts | 232° |
| 2026-05-07 07:53 | 44.42934 | 150.28722 | 33848 ft | 410 kts | 231° |
| 2026-05-07 07:53 | 44.38948 | 150.23099 | 33848 ft | 409 kts | 231° |
| 2026-05-07 07:54 | 44.34971 | 150.17439 | 33840 ft | 409 kts | 231° |
| 2026-05-07 07:54 | 44.30990 | 150.11772 | 33834 ft | 410 kts | 231° |
| 2026-05-07 07:55 | 44.26989 | 150.06073 | 33840 ft | 410 kts | 231° |
| 2026-05-07 07:55 | 44.23016 | 150.00401 | 33843 ft | 410 kts | 231° |
| 2026-05-07 07:56 | 44.19064 | 149.94753 | 33842 ft | 409 kts | 231° |
| 2026-05-07 07:56 | 44.15090 | 149.89087 | 33831 ft | 410 kts | 231° |
| 2026-05-07 07:57 | 44.11141 | 149.83421 | 33844 ft | 411 kts | 231° |
| 2026-05-07 07:57 | 44.07152 | 149.77727 | 33843 ft | 411 kts | 231° |
| 2026-05-07 07:58 | 44.03204 | 149.72066 | 33839 ft | 409 kts | 231° |
| 2026-05-07 07:58 | 43.99254 | 149.66409 | 33838 ft | 409 kts | 232° |
| 2026-05-07 07:59 | 43.95318 | 149.60761 | 33829 ft | 408 kts | 232° |
| 2026-05-07 07:59 | 43.91376 | 149.55107 | 33839 ft | 409 kts | 233° |
| 2026-05-07 08:00 | 43.87431 | 149.49474 | 33835 ft | 409 kts | 232° |
| 2026-05-07 08:00 | 43.83387 | 149.43919 | 33850 ft | 409 kts | 231° |
| 2026-05-07 08:01 | 43.79355 | 149.38379 | 33847 ft | 408 kts | 232° |
| 2026-05-07 08:01 | 43.75354 | 149.32842 | 33863 ft | 408 kts | 231° |
| 2026-05-07 08:02 | 43.71347 | 149.27309 | 33853 ft | 408 kts | 232° |
| 2026-05-07 08:02 | 43.67363 | 149.21785 | 33843 ft | 409 kts | 232° |
| 2026-05-07 08:03 | 43.63351 | 149.16232 | 33838 ft | 408 kts | 232° |
| 2026-05-07 08:03 | 43.59358 | 149.10686 | 33839 ft | 408 kts | 232° |
| 2026-05-07 08:04 | 43.55362 | 149.05159 | 33838 ft | 408 kts | 232° |
| 2026-05-07 08:04 | 43.51393 | 148.99626 | 33828 ft | 409 kts | 232° |
| 2026-05-07 08:05 | 43.47369 | 148.94054 | 33831 ft | 408 kts | 233° |
| 2026-05-07 08:05 | 43.43409 | 148.88524 | 33847 ft | 408 kts | 233° |
| 2026-05-07 08:06 | 43.39424 | 148.83003 | 33853 ft | 408 kts | 232° |
| 2026-05-07 08:06 | 43.35446 | 148.77451 | 33853 ft | 407 kts | 232° |
| 2026-05-07 08:07 | 43.31479 | 148.71933 | 33852 ft | 408 kts | 233° |
| 2026-05-07 08:07 | 43.27467 | 148.66437 | 33848 ft | 408 kts | 232° |
| 2026-05-07 08:08 | 43.23395 | 148.61018 | 33840 ft | 408 kts | 232° |
| 2026-05-07 08:08 | 43.19352 | 148.55602 | 33856 ft | 408 kts | 232° |
| 2026-05-07 08:09 | 43.15311 | 148.50169 | 33854 ft | 409 kts | 233° |
| 2026-05-07 08:09 | 43.11270 | 148.44740 | 33863 ft | 409 kts | 232° |
| 2026-05-07 08:10 | 43.07224 | 148.39307 | 33849 ft | 408 kts | 233° |
| 2026-05-07 08:10 | 43.03192 | 148.33865 | 33869 ft | 410 kts | 232° |
| 2026-05-07 08:11 | 42.99119 | 148.28378 | 33876 ft | 409 kts | 232° |
| 2026-05-07 08:11 | 42.95106 | 148.22978 | 33872 ft | 407 kts | 232° |
| 2026-05-07 08:12 | 42.91089 | 148.17539 | 33877 ft | 409 kts | 232° |
| 2026-05-07 08:12 | 42.87036 | 148.12091 | 33869 ft | 409 kts | 232° |
| 2026-05-07 08:13 | 42.83022 | 148.06644 | 33875 ft | 409 kts | 232° |
| 2026-05-07 08:13 | 42.78959 | 148.01175 | 33871 ft | 409 kts | 232° |
| 2026-05-07 08:14 | 42.74947 | 147.95737 | 33872 ft | 409 kts | 232° |
| 2026-05-07 08:14 | 42.70904 | 147.90274 | 33877 ft | 410 kts | 232° |
| 2026-05-07 08:15 | 42.66827 | 147.84920 | 33865 ft | 411 kts | 232° |
| 2026-05-07 08:15 | 42.62740 | 147.79521 | 33868 ft | 410 kts | 231° |
| 2026-05-07 08:16 | 42.58644 | 147.74138 | 33871 ft | 410 kts | 231° |
| 2026-05-07 08:16 | 42.54557 | 147.68738 | 33883 ft | 411 kts | 232° |
| 2026-05-07 08:17 | 42.50456 | 147.63319 | 33884 ft | 412 kts | 232° |
| 2026-05-07 08:17 | 42.46357 | 147.57915 | 33885 ft | 413 kts | 232° |
| 2026-05-07 08:18 | 42.42256 | 147.52493 | 33882 ft | 413 kts | 232° |
| 2026-05-07 08:18 | 42.38396 | 147.46854 | 33885 ft | 409 kts | 234° |
| 2026-05-07 08:19 | 42.34368 | 147.41327 | 33890 ft | 413 kts | 231° |
| 2026-05-07 08:19 | 42.30219 | 147.35963 | 33890 ft | 414 kts | 231° |
| 2026-05-07 08:20 | 42.26074 | 147.30640 | 33905 ft | 415 kts | 231° |
| 2026-05-07 08:20 | 42.21884 | 147.25226 | 33902 ft | 415 kts | 231° |
| 2026-05-07 08:21 | 42.17749 | 147.19869 | 33899 ft | 415 kts | 231° |
| 2026-05-07 08:21 | 42.13580 | 147.14465 | 33897 ft | 414 kts | 231° |
| 2026-05-07 08:22 | 42.09459 | 147.09113 | 33895 ft | 415 kts | 230° |
| 2026-05-07 08:22 | 42.05317 | 147.03748 | 33900 ft | 414 kts | 231° |
| 2026-05-07 08:23 | 42.01178 | 146.98355 | 33891 ft | 413 kts | 231° |
| 2026-05-07 08:23 | 41.97041 | 146.92986 | 33889 ft | 414 kts | 231° |
| 2026-05-07 08:24 | 41.92936 | 146.87648 | 33897 ft | 415 kts | 231° |
| 2026-05-07 08:24 | 41.88817 | 146.82210 | 33905 ft | 415 kts | 231° |
| 2026-05-07 08:25 | 41.84683 | 146.76843 | 33906 ft | 415 kts | 230° |
| 2026-05-07 08:25 | 41.80466 | 146.71539 | 33897 ft | 415 kts | 230° |
| 2026-05-07 08:26 | 41.74190 | 146.63626 | 33904 ft | 416 kts | 230° |
| 2026-05-07 08:26 | 41.69975 | 146.58304 | 33903 ft | 417 kts | 230° |
| 2026-05-07 08:27 | 41.65777 | 146.53000 | 33907 ft | 416 kts | 230° |
| 2026-05-07 08:27 | 41.61608 | 146.47731 | 33908 ft | 416 kts | 230° |
| 2026-05-07 08:28 | 41.57386 | 146.42397 | 33910 ft | 417 kts | 230° |
| 2026-05-07 08:28 | 41.53168 | 146.37048 | 33909 ft | 418 kts | 230° |
| 2026-05-07 08:29 | 41.48946 | 146.31711 | 33931 ft | 420 kts | 230° |
| 2026-05-07 08:29 | 41.44744 | 146.26370 | 33930 ft | 420 kts | 230° |
| 2026-05-07 08:30 | 41.40510 | 146.21021 | 33931 ft | 420 kts | 230° |
| 2026-05-07 08:30 | 41.36300 | 146.15662 | 33926 ft | 420 kts | 230° |
| 2026-05-07 08:31 | 41.32055 | 146.10284 | 33925 ft | 420 kts | 230° |
| 2026-05-07 08:31 | 41.27842 | 146.04950 | 33917 ft | 422 kts | 229° |
| 2026-05-07 08:32 | 41.23508 | 145.99660 | 33923 ft | 423 kts | 229° |
| 2026-05-07 08:32 | 41.19212 | 145.94412 | 33919 ft | 422 kts | 229° |
| 2026-05-07 08:33 | 41.14916 | 145.89128 | 33912 ft | 422 kts | 229° |
| 2026-05-07 08:33 | 41.10607 | 145.83843 | 33907 ft | 423 kts | 229° |
| 2026-05-07 08:34 | 41.06294 | 145.78537 | 33911 ft | 424 kts | 229° |
| 2026-05-07 08:34 | 41.01980 | 145.73224 | 33902 ft | 423 kts | 229° |
| 2026-05-07 08:35 | 40.97695 | 145.67960 | 33904 ft | 422 kts | 229° |
| 2026-05-07 08:35 | 40.93407 | 145.62665 | 33908 ft | 423 kts | 229° |
| 2026-05-07 08:36 | 40.89104 | 145.57359 | 33908 ft | 423 kts | 229° |
| 2026-05-07 08:36 | 40.84813 | 145.52080 | 33910 ft | 423 kts | 229° |
| 2026-05-07 08:37 | 40.80530 | 145.46768 | 33907 ft | 423 kts | 229° |
| 2026-05-07 08:37 | 40.76232 | 145.41505 | 33903 ft | 422 kts | 229° |
| 2026-05-07 08:38 | 40.71973 | 145.36206 | 33902 ft | 423 kts | 229° |
| 2026-05-07 08:38 | 40.67663 | 145.30901 | 33916 ft | 423 kts | 228° |
| 2026-05-07 08:39 | 40.63337 | 145.25700 | 33916 ft | 424 kts | 228° |
| 2026-05-07 08:39 | 40.59007 | 145.20451 | 33914 ft | 424 kts | 228° |
| 2026-05-07 08:40 | 40.54672 | 145.15207 | 33909 ft | 424 kts | 227° |
| 2026-05-07 08:40 | 40.50324 | 145.09955 | 33912 ft | 424 kts | 228° |
| 2026-05-07 08:41 | 40.45989 | 145.04694 | 33915 ft | 425 kts | 228° |
| 2026-05-07 08:41 | 40.42036 | 144.99057 | 33914 ft | 418 kts | 237° |
| 2026-05-07 08:42 | 40.38817 | 144.92809 | 33914 ft | 415 kts | 242° |
| 2026-05-07 08:42 | 40.35768 | 144.86346 | 33905 ft | 415 kts | 242° |
| 2026-05-07 08:43 | 40.32729 | 144.79932 | 33908 ft | 416 kts | 241° |
| 2026-05-07 08:43 | 40.29684 | 144.73541 | 33904 ft | 416 kts | 241° |
| 2026-05-07 08:44 | 40.26617 | 144.67110 | 33903 ft | 416 kts | 241° |
| 2026-05-07 08:44 | 40.23560 | 144.60692 | 33903 ft | 417 kts | 241° |
| 2026-05-07 08:45 | 40.20530 | 144.54309 | 33902 ft | 416 kts | 242° |
| 2026-05-07 08:45 | 40.17475 | 144.47859 | 33904 ft | 417 kts | 242° |
| 2026-05-07 08:46 | 40.14449 | 144.41458 | 33904 ft | 416 kts | 242° |
| 2026-05-07 08:46 | 40.11404 | 144.34988 | 33899 ft | 417 kts | 241° |
| 2026-05-07 08:47 | 40.08370 | 144.28563 | 33910 ft | 417 kts | 241° |
| 2026-05-07 08:47 | 40.05368 | 144.22163 | 33911 ft | 417 kts | 241° |
| 2026-05-07 08:48 | 40.02320 | 144.15701 | 33914 ft | 418 kts | 242° |
| 2026-05-07 08:48 | 39.99304 | 144.09244 | 33917 ft | 419 kts | 241° |
| 2026-05-07 08:49 | 39.96246 | 144.02751 | 33911 ft | 419 kts | 241° |
| 2026-05-07 08:49 | 39.93199 | 143.96349 | 33912 ft | 420 kts | 240° |
| 2026-05-07 08:50 | 39.90047 | 143.89954 | 33915 ft | 420 kts | 240° |
| 2026-05-07 08:50 | 39.86897 | 143.83537 | 33919 ft | 420 kts | 240° |
| 2026-05-07 08:51 | 39.83756 | 143.77125 | 33919 ft | 421 kts | 240° |
| 2026-05-07 08:51 | 39.80647 | 143.70740 | 33924 ft | 421 kts | 240° |
| 2026-05-07 08:52 | 39.77515 | 143.64327 | 33921 ft | 421 kts | 240° |
| 2026-05-07 08:52 | 39.74404 | 143.57932 | 33915 ft | 420 kts | 240° |
| 2026-05-07 08:53 | 39.71276 | 143.51504 | 33913 ft | 420 kts | 240° |
| 2026-05-07 08:53 | 39.68177 | 143.45122 | 33913 ft | 420 kts | 240° |
| 2026-05-07 08:54 | 39.65073 | 143.38728 | 33905 ft | 420 kts | 240° |
| 2026-05-07 08:54 | 39.61969 | 143.32323 | 33917 ft | 420 kts | 240° |
| 2026-05-07 08:55 | 39.58885 | 143.25943 | 33915 ft | 420 kts | 240° |
| 2026-05-07 08:55 | 39.55777 | 143.19530 | 33912 ft | 420 kts | 240° |
| 2026-05-07 08:56 | 39.52689 | 143.13126 | 33907 ft | 420 kts | 240° |
| 2026-05-07 08:56 | 39.49591 | 143.06746 | 33899 ft | 419 kts | 239° |
| 2026-05-07 08:57 | 39.46429 | 143.00450 | 33897 ft | 420 kts | 239° |
| 2026-05-07 08:57 | 39.43258 | 142.94102 | 33889 ft | 420 kts | 239° |
| 2026-05-07 08:58 | 39.40128 | 142.87804 | 33882 ft | 420 kts | 239° |
| 2026-05-07 08:58 | 39.36964 | 142.81457 | 33880 ft | 420 kts | 240° |
| 2026-05-07 08:59 | 39.33823 | 142.75127 | 33877 ft | 420 kts | 239° |
| 2026-05-07 08:59 | 39.30669 | 142.68774 | 33872 ft | 419 kts | 240° |
| 2026-05-07 09:00 | 39.27551 | 142.62483 | 33876 ft | 419 kts | 239° |
| 2026-05-07 09:00 | 39.24383 | 142.56165 | 33871 ft | 420 kts | 238° |
| 2026-05-07 09:01 | 39.20969 | 142.50107 | 33869 ft | 421 kts | 234° |
| 2026-05-07 09:01 | 39.17161 | 142.44321 | 33873 ft | 422 kts | 232° |
| 2026-05-07 09:02 | 39.13317 | 142.38672 | 33870 ft | 422 kts | 232° |
| 2026-05-07 09:02 | 39.09463 | 142.32933 | 33879 ft | 422 kts | 231° |
| 2026-05-07 09:03 | 39.05624 | 142.27255 | 33887 ft | 421 kts | 232° |
| 2026-05-07 09:03 | 39.01813 | 142.21582 | 33886 ft | 421 kts | 232° |
| 2026-05-07 09:04 | 38.97981 | 142.15900 | 33887 ft | 421 kts | 232° |
| 2026-05-07 09:04 | 38.94178 | 142.10236 | 33888 ft | 421 kts | 232° |
| 2026-05-07 09:05 | 38.90365 | 142.04559 | 33888 ft | 421 kts | 232° |
| 2026-05-07 09:05 | 38.86555 | 141.98894 | 33893 ft | 421 kts | 232° |
| 2026-05-07 09:06 | 38.82720 | 141.93162 | 33896 ft | 421 kts | 232° |
| 2026-05-07 09:06 | 38.78907 | 141.87489 | 33897 ft | 422 kts | 232° |
| 2026-05-07 09:07 | 38.75081 | 141.81770 | 33895 ft | 424 kts | 232° |
| 2026-05-07 09:07 | 38.71257 | 141.76059 | 33893 ft | 425 kts | 232° |
| 2026-05-07 09:08 | 38.67411 | 141.70309 | 33896 ft | 425 kts | 232° |
| 2026-05-07 09:08 | 38.63561 | 141.64574 | 33892 ft | 425 kts | 231° |
| 2026-05-07 09:09 | 38.59655 | 141.58952 | 33892 ft | 426 kts | 231° |
| 2026-05-07 09:09 | 38.56387 | 141.54233 | 33891 ft | 426 kts | 231° |
| 2026-05-07 09:10 | 38.51823 | 141.47607 | 33889 ft | 427 kts | 231° |
| 2026-05-07 09:10 | 38.47892 | 141.41907 | 33883 ft | 427 kts | 231° |
| 2026-05-07 09:11 | 38.43971 | 141.36211 | 33879 ft | 427 kts | 231° |
| 2026-05-07 09:11 | 38.40049 | 141.30513 | 33891 ft | 428 kts | 231° |
| 2026-05-07 09:12 | 38.36137 | 141.24817 | 33889 ft | 428 kts | 231° |
| 2026-05-07 09:12 | 38.32216 | 141.19115 | 33879 ft | 428 kts | 231° |
| 2026-05-07 09:13 | 38.28319 | 141.13432 | 33884 ft | 429 kts | 231° |
| 2026-05-07 09:13 | 38.24390 | 141.07712 | 33888 ft | 430 kts | 231° |
| 2026-05-07 09:14 | 38.20465 | 141.01982 | 33880 ft | 430 kts | 231° |
| 2026-05-07 09:14 | 38.16586 | 140.96201 | 33852 ft | 430 kts | 236° |
| 2026-05-07 09:15 | 38.13950 | 140.89488 | 33887 ft | 429 kts | 252° |
| 2026-05-07 09:15 | 38.12820 | 140.82045 | 33883 ft | 431 kts | 261° |
| 2026-05-07 09:16 | 38.12167 | 140.74501 | 33875 ft | 432 kts | 261° |
| 2026-05-07 09:16 | 38.11447 | 140.66983 | 33876 ft | 432 kts | 261° |
| 2026-05-07 09:17 | 38.10687 | 140.59441 | 33885 ft | 431 kts | 261° |
| 2026-05-07 09:17 | 38.09918 | 140.51874 | 33896 ft | 431 kts | 261° |
| 2026-05-07 09:18 | 38.09165 | 140.44374 | 33914 ft | 432 kts | 261° |
| 2026-05-07 09:18 | 38.08415 | 140.36804 | 33909 ft | 432 kts | 261° |
| 2026-05-07 09:19 | 38.07675 | 140.29257 | 33912 ft | 433 kts | 261° |
| 2026-05-07 09:19 | 38.06940 | 140.21712 | 33916 ft | 434 kts | 261° |
| 2026-05-07 09:20 | 38.06214 | 140.14122 | 33910 ft | 433 kts | 261° |
| 2026-05-07 09:20 | 38.05485 | 140.06531 | 33919 ft | 433 kts | 261° |
| 2026-05-07 09:21 | 38.04779 | 139.99020 | 33919 ft | 433 kts | 261° |
| 2026-05-07 09:21 | 38.04066 | 139.91446 | 33923 ft | 434 kts | 261° |
| 2026-05-07 09:22 | 38.03359 | 139.83862 | 33929 ft | 433 kts | 261° |
| 2026-05-07 09:22 | 38.02640 | 139.76296 | 33926 ft | 431 kts | 260° |
| 2026-05-07 09:23 | 38.01832 | 139.68800 | 33934 ft | 432 kts | 260° |
| 2026-05-07 09:23 | 38.01017 | 139.61273 | 33935 ft | 432 kts | 260° |
| 2026-05-07 09:24 | 38.00222 | 139.53772 | 33941 ft | 430 kts | 261° |
| 2026-05-07 09:24 | 37.99425 | 139.46263 | 33941 ft | 430 kts | 260° |
| 2026-05-07 09:25 | 37.98642 | 139.38782 | 33933 ft | 430 kts | 260° |
| 2026-05-07 09:25 | 37.97857 | 139.31291 | 33949 ft | 430 kts | 260° |
| 2026-05-07 09:26 | 37.97082 | 139.23787 | 33939 ft | 430 kts | 260° |
| 2026-05-07 09:26 | 37.96275 | 139.16341 | 33923 ft | 428 kts | 257° |
| 2026-05-07 09:27 | 37.94790 | 139.09062 | 33932 ft | 426 kts | 250° |
| 2026-05-07 09:28 | 37.91340 | 138.98718 | 33930 ft | 426 kts | 245° |
| 2026-05-07 09:28 | 37.88906 | 138.91891 | 33930 ft | 426 kts | 246° |
| 2026-05-07 09:29 | 37.86506 | 138.85059 | 33928 ft | 428 kts | 246° |
| 2026-05-07 09:29 | 37.84079 | 138.78195 | 33927 ft | 428 kts | 246° |
| 2026-05-07 09:30 | 37.81660 | 138.71313 | 33917 ft | 428 kts | 246° |
| 2026-05-07 09:30 | 37.79246 | 138.64465 | 33912 ft | 428 kts | 246° |
| 2026-05-07 09:31 | 37.76836 | 138.57594 | 33908 ft | 429 kts | 246° |
| 2026-05-07 09:31 | 37.74421 | 138.50714 | 33910 ft | 429 kts | 246° |
| 2026-05-07 09:32 | 37.72022 | 138.43855 | 33906 ft | 429 kts | 246° |
| 2026-05-07 09:32 | 37.69603 | 138.36938 | 33908 ft | 429 kts | 246° |
| 2026-05-07 09:33 | 37.67215 | 138.30089 | 33916 ft | 429 kts | 246° |
| 2026-05-07 09:33 | 37.64823 | 138.23221 | 33918 ft | 430 kts | 246° |
| 2026-05-07 09:34 | 37.62421 | 138.16310 | 33913 ft | 430 kts | 246° |
| 2026-05-07 09:34 | 37.60034 | 138.09430 | 33915 ft | 431 kts | 246° |
| 2026-05-07 09:35 | 37.57568 | 138.02562 | 33915 ft | 430 kts | 245° |
| 2026-05-07 09:35 | 37.55056 | 137.95732 | 33924 ft | 430 kts | 245° |
| 2026-05-07 09:36 | 37.52549 | 137.88892 | 33931 ft | 431 kts | 245° |
| 2026-05-07 09:36 | 37.50054 | 137.82062 | 33923 ft | 432 kts | 245° |
| 2026-05-07 09:37 | 37.47554 | 137.75191 | 33915 ft | 432 kts | 245° |
| 2026-05-07 09:37 | 37.45063 | 137.68329 | 33908 ft | 431 kts | 245° |
| 2026-05-07 09:38 | 37.42586 | 137.61497 | 33904 ft | 432 kts | 245° |
| 2026-05-07 09:38 | 37.40101 | 137.54643 | 33901 ft | 432 kts | 245° |
| 2026-05-07 09:39 | 37.37625 | 137.47774 | 33901 ft | 432 kts | 245° |
| 2026-05-07 09:39 | 37.35138 | 137.40892 | 33904 ft | 432 kts | 245° |
| 2026-05-07 09:40 | 37.32666 | 137.34021 | 33901 ft | 433 kts | 245° |
| 2026-05-07 09:40 | 37.30201 | 137.27161 | 33907 ft | 433 kts | 245° |
| 2026-05-07 09:41 | 37.27732 | 137.20297 | 33905 ft | 434 kts | 245° |
| 2026-05-07 09:41 | 37.25252 | 137.13361 | 33904 ft | 434 kts | 245° |
| 2026-05-07 09:42 | 37.22709 | 137.06514 | 33900 ft | 434 kts | 244° |
| 2026-05-07 09:42 | 37.20152 | 136.99663 | 33908 ft | 435 kts | 245° |
| 2026-05-07 09:43 | 37.17616 | 136.92793 | 33912 ft | 435 kts | 245° |
| 2026-05-07 09:43 | 37.15067 | 136.85933 | 33908 ft | 435 kts | 245° |
| 2026-05-07 09:44 | 37.12543 | 136.79077 | 33907 ft | 436 kts | 245° |
| 2026-05-07 09:44 | 37.09998 | 136.72201 | 33908 ft | 436 kts | 245° |
| 2026-05-07 09:45 | 37.07399 | 136.65352 | 33899 ft | 437 kts | 244° |
| 2026-05-07 09:45 | 37.05195 | 136.59639 | 33899 ft | 437 kts | 244° |
| 2026-05-07 09:46 | 37.02131 | 136.51633 | 33897 ft | 437 kts | 245° |
| 2026-05-07 09:46 | 36.99530 | 136.44809 | 33901 ft | 438 kts | 244° |
| 2026-05-07 09:47 | 36.96921 | 136.37958 | 33899 ft | 438 kts | 245° |
| 2026-05-07 09:47 | 36.94300 | 136.31056 | 33909 ft | 438 kts | 244° |
| 2026-05-07 09:48 | 36.91696 | 136.24191 | 33909 ft | 439 kts | 244° |
| 2026-05-07 09:48 | 36.89095 | 136.17326 | 33906 ft | 439 kts | 244° |
| 2026-05-07 09:49 | 36.86483 | 136.10420 | 33904 ft | 439 kts | 245° |
| 2026-05-07 09:49 | 36.83887 | 136.03538 | 33895 ft | 438 kts | 244° |
| 2026-05-07 09:50 | 36.81300 | 135.96675 | 33897 ft | 440 kts | 245° |
| 2026-05-07 09:50 | 36.78690 | 135.89748 | 33892 ft | 440 kts | 245° |
| 2026-05-07 09:51 | 36.76110 | 135.82883 | 33894 ft | 440 kts | 245° |
| 2026-05-07 09:51 | 36.73512 | 135.75983 | 33894 ft | 439 kts | 244° |
| 2026-05-07 09:52 | 36.70815 | 135.69167 | 33903 ft | 439 kts | 244° |
| 2026-05-07 09:52 | 36.68115 | 135.62358 | 33906 ft | 438 kts | 244° |
| 2026-05-07 09:53 | 36.65459 | 135.55592 | 33910 ft | 438 kts | 244° |
| 2026-05-07 09:53 | 36.62789 | 135.48795 | 33900 ft | 438 kts | 244° |
| 2026-05-07 09:54 | 36.60126 | 135.42000 | 33897 ft | 438 kts | 244° |
| 2026-05-07 09:54 | 36.57906 | 135.36319 | 33896 ft | 438 kts | 244° |
| 2026-05-07 09:55 | 36.54796 | 135.28365 | 33905 ft | 438 kts | 244° |
| 2026-05-07 09:55 | 36.52147 | 135.21564 | 33896 ft | 438 kts | 244° |
| 2026-05-07 09:56 | 36.49498 | 135.14771 | 33899 ft | 438 kts | 245° |
| 2026-05-07 09:56 | 36.46865 | 135.07993 | 33897 ft | 438 kts | 244° |
| 2026-05-07 09:57 | 36.44230 | 135.01207 | 33887 ft | 438 kts | 244° |
| 2026-05-07 09:57 | 36.41585 | 134.94389 | 33890 ft | 438 kts | 244° |
| 2026-05-07 09:58 | 36.38959 | 134.87610 | 33891 ft | 437 kts | 245° |
| 2026-05-07 09:58 | 36.36318 | 134.80855 | 33885 ft | 437 kts | 244° |
| 2026-05-07 09:59 | 36.33598 | 134.74115 | 33886 ft | 438 kts | 244° |
| 2026-05-07 09:59 | 36.30928 | 134.67364 | 33885 ft | 438 kts | 244° |
| 2026-05-07 10:00 | 36.28218 | 134.60574 | 33882 ft | 438 kts | 244° |
| 2026-05-07 10:00 | 36.25529 | 134.53806 | 33890 ft | 439 kts | 244° |
| 2026-05-07 10:01 | 36.22679 | 134.47142 | 33890 ft | 439 kts | 241° |
| 2026-05-07 10:01 | 36.19502 | 134.40701 | 33895 ft | 439 kts | 239° |
| 2026-05-07 10:02 | 36.16293 | 134.34341 | 33898 ft | 439 kts | 239° |
| 2026-05-07 10:02 | 36.13086 | 134.27911 | 33902 ft | 440 kts | 239° |
| 2026-05-07 10:03 | 36.09860 | 134.21492 | 33901 ft | 440 kts | 239° |
| 2026-05-07 10:03 | 36.06651 | 134.15056 | 33911 ft | 440 kts | 239° |
| 2026-05-07 10:04 | 36.03435 | 134.08646 | 33910 ft | 439 kts | 239° |
| 2026-05-07 10:04 | 36.00777 | 134.03301 | 33906 ft | 439 kts | 239° |
| 2026-05-07 10:05 | 35.97342 | 133.95686 | 33910 ft | 437 kts | 249° |
| 2026-05-07 10:05 | 35.95964 | 133.88358 | 33912 ft | 439 kts | 263° |
| 2026-05-07 10:06 | 35.95715 | 133.82098 | 33901 ft | 441 kts | 266° |
| 2026-05-07 10:06 | 35.95526 | 133.74554 | 33891 ft | 443 kts | 266° |
| 2026-05-07 10:07 | 35.95197 | 133.65692 | 33888 ft | 443 kts | 266° |
| 2026-05-07 10:07 | 35.94897 | 133.58151 | 33882 ft | 443 kts | 266° |
| 2026-05-07 10:08 | 35.94604 | 133.50545 | 33885 ft | 443 kts | 266° |
| 2026-05-07 10:08 | 35.94324 | 133.42999 | 33888 ft | 443 kts | 266° |
| 2026-05-07 10:09 | 35.94053 | 133.35423 | 33883 ft | 443 kts | 266° |
| 2026-05-07 10:09 | 35.93784 | 133.27820 | 33893 ft | 443 kts | 266° |
| 2026-05-07 10:10 | 35.93526 | 133.20235 | 33890 ft | 443 kts | 266° |
| 2026-05-07 10:10 | 35.93272 | 133.12654 | 33892 ft | 444 kts | 266° |
| 2026-05-07 10:11 | 35.93024 | 133.05078 | 33891 ft | 444 kts | 266° |
| 2026-05-07 10:11 | 35.92783 | 132.97463 | 33890 ft | 444 kts | 266° |
| 2026-05-07 10:12 | 35.92541 | 132.89899 | 33888 ft | 444 kts | 266° |
| 2026-05-07 10:12 | 35.92306 | 132.82310 | 33886 ft | 444 kts | 266° |
| 2026-05-07 10:13 | 35.91957 | 132.74739 | 33888 ft | 443 kts | 265° |
| 2026-05-07 10:13 | 35.91587 | 132.67169 | 33889 ft | 443 kts | 265° |
| 2026-05-07 10:14 | 35.91230 | 132.59628 | 33882 ft | 442 kts | 265° |
| 2026-05-07 10:14 | 35.90885 | 132.52115 | 33885 ft | 441 kts | 265° |
| 2026-05-07 10:15 | 35.90545 | 132.44562 | 33882 ft | 441 kts | 266° |
| 2026-05-07 10:15 | 35.90210 | 132.37028 | 33878 ft | 441 kts | 266° |
| 2026-05-07 10:16 | 35.89881 | 132.29475 | 33885 ft | 441 kts | 265° |
| 2026-05-07 10:16 | 35.89561 | 132.21964 | 33882 ft | 441 kts | 265° |
| 2026-05-07 10:17 | 35.89242 | 132.14444 | 33876 ft | 440 kts | 265° |
| 2026-05-07 10:17 | 35.88930 | 132.06920 | 33878 ft | 440 kts | 265° |
| 2026-05-07 10:18 | 35.88624 | 131.99402 | 34093 ft | 443 kts | 265° |
| 2026-05-07 10:18 | 35.88471 | 131.95627 | 34979 ft | 439 kts | 265° |
| 2026-05-07 10:18 | 35.88319 | 131.91875 | 35621 ft | 439 kts | 265° |
| 2026-05-07 10:18 | 35.88168 | 131.88136 | 35815 ft | 439 kts | 265° |
| 2026-05-07 10:19 | 35.88021 | 131.84370 | 35819 ft | 434 kts | 265° |
| 2026-05-07 10:19 | 35.87698 | 131.77039 | 35849 ft | 428 kts | 264° |
| 2026-05-07 10:20 | 35.87277 | 131.69714 | 35858 ft | 429 kts | 264° |
| 2026-05-07 10:20 | 35.86859 | 131.62398 | 35866 ft | 429 kts | 264° |
| 2026-05-07 10:21 | 35.86456 | 131.55087 | 35865 ft | 428 kts | 264° |
| 2026-05-07 10:21 | 35.86062 | 131.47775 | 35878 ft | 428 kts | 265° |
| 2026-05-07 10:22 | 35.85674 | 131.40483 | 35874 ft | 427 kts | 265° |
| 2026-05-07 10:22 | 35.85288 | 131.33208 | 35877 ft | 427 kts | 264° |
| 2026-05-07 10:23 | 35.84911 | 131.25977 | 35874 ft | 426 kts | 264° |
| 2026-05-07 10:23 | 35.84539 | 131.18675 | 35874 ft | 426 kts | 264° |
| 2026-05-07 10:24 | 35.84168 | 131.11436 | 35858 ft | 425 kts | 264° |
| 2026-05-07 10:24 | 35.83810 | 131.04178 | 35861 ft | 425 kts | 264° |
| 2026-05-07 10:25 | 35.83446 | 130.96927 | 35856 ft | 424 kts | 264° |
| 2026-05-07 10:25 | 35.83100 | 130.89723 | 35852 ft | 424 kts | 264° |
| 2026-05-07 10:26 | 35.82744 | 130.82471 | 35847 ft | 422 kts | 264° |
| 2026-05-07 10:26 | 35.82523 | 130.75285 | 35849 ft | 422 kts | 269° |
| 2026-05-07 10:27 | 35.82991 | 130.68054 | 35850 ft | 424 kts | 275° |
| 2026-05-07 10:27 | 35.83859 | 130.60884 | 35837 ft | 423 kts | 275° |
| 2026-05-07 10:28 | 35.84736 | 130.53752 | 35841 ft | 423 kts | 275° |
| 2026-05-07 10:28 | 35.85601 | 130.46594 | 35835 ft | 422 kts | 275° |
| 2026-05-07 10:29 | 35.86463 | 130.39433 | 35838 ft | 421 kts | 275° |
| 2026-05-07 10:29 | 35.87331 | 130.32283 | 35854 ft | 420 kts | 275° |
| 2026-05-07 10:30 | 35.88638 | 130.21623 | 35850 ft | 420 kts | 275° |
| 2026-05-07 10:30 | 35.89517 | 130.14519 | 35843 ft | 418 kts | 275° |
| 2026-05-07 10:31 | 35.90397 | 130.07477 | 35842 ft | 418 kts | 275° |
| 2026-05-07 10:31 | 35.91284 | 130.00406 | 35840 ft | 417 kts | 275° |
| 2026-05-07 10:32 | 35.92170 | 129.93370 | 35843 ft | 416 kts | 275° |
| 2026-05-07 10:32 | 35.93066 | 129.86325 | 35847 ft | 415 kts | 275° |
| 2026-05-07 10:33 | 35.93940 | 129.79295 | 35851 ft | 414 kts | 275° |
| 2026-05-07 10:33 | 35.94733 | 129.72314 | 35854 ft | 413 kts | 275° |
| 2026-05-07 10:34 | 35.95575 | 129.65268 | 35864 ft | 413 kts | 275° |
| 2026-05-07 10:34 | 35.96404 | 129.58301 | 35862 ft | 414 kts | 275° |
| 2026-05-07 10:35 | 35.96825 | 129.54782 | 36148 ft | 414 kts | 275° |
| 2026-05-07 10:35 | 35.97366 | 129.51282 | 36549 ft | 416 kts | 281° |
| 2026-05-07 10:35 | 35.98287 | 129.47882 | 36896 ft | 420 kts | 288° |
| 2026-05-07 10:35 | 35.99536 | 129.44629 | 37310 ft | 423 kts | 293° |
| 2026-05-07 10:36 | 36.01103 | 129.41521 | 37642 ft | 427 kts | 298° |
| 2026-05-07 10:36 | 36.02829 | 129.38507 | 37857 ft | 429 kts | 299° |
| 2026-05-07 10:36 | 36.06308 | 129.32590 | 37843 ft | 426 kts | 298° |
| 2026-05-07 10:37 | 36.09721 | 129.26649 | 37860 ft | 426 kts | 298° |
| 2026-05-07 10:37 | 36.13133 | 129.20659 | 37853 ft | 425 kts | 298° |
| 2026-05-07 10:38 | 36.16534 | 129.14699 | 37864 ft | 424 kts | 298° |
| 2026-05-07 10:38 | 36.19925 | 129.08771 | 37870 ft | 423 kts | 298° |
| 2026-05-07 10:39 | 36.23317 | 129.02846 | 37876 ft | 422 kts | 298° |
| 2026-05-07 10:39 | 36.26735 | 128.96893 | 37874 ft | 420 kts | 298° |
| 2026-05-07 10:40 | 36.30122 | 128.91002 | 37871 ft | 420 kts | 298° |
| 2026-05-07 10:40 | 36.33502 | 128.85136 | 37867 ft | 420 kts | 298° |
| 2026-05-07 10:41 | 36.36815 | 128.79152 | 37874 ft | 418 kts | 297° |
| 2026-05-07 10:41 | 36.40099 | 128.73204 | 37866 ft | 419 kts | 297° |
| 2026-05-07 10:42 | 36.43442 | 128.67281 | 37867 ft | 419 kts | 297° |
| 2026-05-07 10:42 | 36.46796 | 128.61365 | 37868 ft | 419 kts | 297° |
| 2026-05-07 10:43 | 36.50161 | 128.55440 | 37871 ft | 418 kts | 297° |
| 2026-05-07 10:43 | 36.53502 | 128.49567 | 37875 ft | 418 kts | 297° |
| 2026-05-07 10:44 | 36.56884 | 128.43623 | 37875 ft | 420 kts | 297° |
| 2026-05-07 10:44 | 36.60259 | 128.37698 | 37880 ft | 421 kts | 297° |
| 2026-05-07 10:45 | 36.63636 | 128.31776 | 37897 ft | 420 kts | 297° |
| 2026-05-07 10:45 | 36.66950 | 128.25816 | 37900 ft | 418 kts | 296° |
| 2026-05-07 10:46 | 36.70302 | 128.19966 | 37069 ft | 418 kts | 297° |
| 2026-05-07 10:46 | 36.72030 | 128.17026 | 36175 ft | 419 kts | 297° |
| 2026-05-07 10:46 | 36.73736 | 128.14079 | 35262 ft | 418 kts | 296° |
| 2026-05-07 10:47 | 36.75354 | 128.11118 | 34395 ft | 418 kts | 296° |
| 2026-05-07 10:47 | 36.77006 | 128.08109 | 33339 ft | 423 kts | 296° |
| 2026-05-07 10:47 | 36.78679 | 128.05119 | 32389 ft | 426 kts | 297° |
| 2026-05-07 10:47 | 36.80394 | 128.02121 | 31395 ft | 431 kts | 297° |
| 2026-05-07 10:48 | 36.82171 | 127.99070 | 30500 ft | 433 kts | 297° |
| 2026-05-07 10:48 | 36.83934 | 127.96039 | 29499 ft | 436 kts | 297° |
| 2026-05-07 10:48 | 36.85677 | 127.92966 | 28468 ft | 440 kts | 296° |
| 2026-05-07 10:48 | 36.87409 | 127.89794 | 27416 ft | 444 kts | 296° |
| 2026-05-07 10:49 | 36.89173 | 127.86604 | 26397 ft | 448 kts | 297° |
| 2026-05-07 10:49 | 36.90966 | 127.83433 | 25332 ft | 453 kts | 297° |
| 2026-05-07 10:49 | 36.92819 | 127.80232 | 24410 ft | 453 kts | 298° |
| 2026-05-07 10:49 | 36.94651 | 127.77062 | 23753 ft | 446 kts | 297° |
| 2026-05-07 10:50 | 36.96392 | 127.73923 | 23065 ft | 442 kts | 297° |
| 2026-05-07 10:50 | 36.98124 | 127.70788 | 22423 ft | 437 kts | 297° |
| 2026-05-07 10:50 | 36.99845 | 127.67702 | 21749 ft | 434 kts | 298° |
| 2026-05-07 10:50 | 37.01580 | 127.64643 | 21076 ft | 431 kts | 298° |
| 2026-05-07 10:51 | 37.03299 | 127.61616 | 20362 ft | 428 kts | 298° |
| 2026-05-07 10:51 | 37.04981 | 127.58551 | 19659 ft | 425 kts | 297° |
| 2026-05-07 10:51 | 37.06646 | 127.55518 | 18946 ft | 423 kts | 298° |
| 2026-05-07 10:51 | 37.08312 | 127.52510 | 18206 ft | 421 kts | 299° |
| 2026-05-07 10:52 | 37.09988 | 127.49538 | 17544 ft | 418 kts | 300° |
| 2026-05-07 10:52 | 37.11662 | 127.46596 | 16848 ft | 414 kts | 300° |
| 2026-05-07 10:52 | 37.13296 | 127.43696 | 15865 ft | 409 kts | 299° |
| 2026-05-07 10:52 | 37.14890 | 127.40798 | 14907 ft | 401 kts | 299° |
| 2026-05-07 10:53 | 37.16444 | 127.37965 | 13918 ft | 384 kts | 300° |
| 2026-05-07 10:53 | 37.17913 | 127.35334 | 13533 ft | 360 kts | 300° |
| 2026-05-07 10:53 | 37.19301 | 127.32858 | 13302 ft | 336 kts | 299° |
| 2026-05-07 10:53 | 37.20606 | 127.30528 | 13185 ft | 311 kts | 298° |
| 2026-05-07 10:54 | 37.21785 | 127.28386 | 12958 ft | 295 kts | 297° |
| 2026-05-07 10:54 | 37.22926 | 127.26296 | 12518 ft | 286 kts | 298° |
| 2026-05-07 10:54 | 37.24033 | 127.24271 | 11991 ft | 283 kts | 298° |
| 2026-05-07 10:54 | 37.25153 | 127.22245 | 11397 ft | 280 kts | 298° |
| 2026-05-07 10:55 | 37.26219 | 127.20241 | 10674 ft | 275 kts | 293° |
| 2026-05-07 10:55 | 37.26941 | 127.18065 | 9960 ft | 266 kts | 279° |
| 2026-05-07 10:55 | 37.27193 | 127.15813 | 9226 ft | 263 kts | 270° |
| 2026-05-07 10:55 | 37.27217 | 127.13541 | 8445 ft | 264 kts | 268° |
| 2026-05-07 10:56 | 37.27177 | 127.11266 | 7683 ft | 265 kts | 268° |
| 2026-05-07 10:56 | 37.27130 | 127.08950 | 6924 ft | 265 kts | 269° |
| 2026-05-07 10:56 | 37.27031 | 127.06671 | 6254 ft | 267 kts | 257° |
| 2026-05-07 10:56 | 37.26236 | 127.04563 | 5967 ft | 266 kts | 235° |
| 2026-05-07 10:57 | 37.25087 | 127.02799 | 5668 ft | 263 kts | 240° |
| 2026-05-07 10:57 | 37.24295 | 127.00745 | 5415 ft | 257 kts | 252° |
| 2026-05-07 10:57 | 37.23747 | 126.98625 | 5146 ft | 254 kts | 255° |
| 2026-05-07 10:57 | 37.23237 | 126.96529 | 4728 ft | 254 kts | 254° |
| 2026-05-07 10:58 | 37.22689 | 126.94430 | 4282 ft | 253 kts | 253° |
| 2026-05-07 10:58 | 37.22091 | 126.92335 | 3838 ft | 253 kts | 251° |
| 2026-05-07 10:58 | 37.21470 | 126.90287 | 3413 ft | 252 kts | 251° |
| 2026-05-07 10:58 | 37.20829 | 126.88222 | 2985 ft | 251 kts | 251° |
| 2026-05-07 10:59 | 37.20202 | 126.86195 | 2574 ft | 249 kts | 253° |
| 2026-05-07 10:59 | 37.20043 | 126.84094 | 2204 ft | 241 kts | 279° |
| 2026-05-07 10:59 | 37.20478 | 126.82100 | 1972 ft | 240 kts | 291° |
| 2026-05-07 10:59 | 37.21159 | 126.80162 | 1984 ft | 245 kts | 295° |
| 2026-05-07 11:00 | 37.21912 | 126.78230 | 1984 ft | 245 kts | 296° |
| 2026-05-07 11:00 | 37.22664 | 126.76305 | 1989 ft | 244 kts | 295° |
| 2026-05-07 11:00 | 37.23375 | 126.74400 | 1976 ft | 242 kts | 294° |
| 2026-05-07 11:00 | 37.24063 | 126.72478 | 1978 ft | 242 kts | 294° |
| 2026-05-07 11:01 | 37.24742 | 126.70540 | 1976 ft | 242 kts | 294° |
| 2026-05-07 11:01 | 37.25419 | 126.68590 | 1982 ft | 242 kts | 294° |
| 2026-05-07 11:01 | 37.26089 | 126.66666 | 1977 ft | 242 kts | 294° |
| 2026-05-07 11:01 | 37.26774 | 126.64712 | 1982 ft | 242 kts | 294° |
| 2026-05-07 11:02 | 37.27448 | 126.62790 | 1982 ft | 242 kts | 294° |
| 2026-05-07 11:02 | 37.28130 | 126.60852 | 1984 ft | 242 kts | 294° |
| 2026-05-07 11:02 | 37.28877 | 126.58939 | 1976 ft | 242 kts | 301° |
| 2026-05-07 11:02 | 37.29879 | 126.57278 | 1979 ft | 242 kts | 313° |
| 2026-05-07 11:03 | 37.31150 | 126.55851 | 1990 ft | 240 kts | 321° |
| 2026-05-07 11:03 | 37.32469 | 126.54657 | 1966 ft | 225 kts | 324° |
| 2026-05-07 11:03 | 37.33716 | 126.53612 | 1976 ft | 206 kts | 324° |
| 2026-05-07 11:03 | 37.34846 | 126.52666 | 1927 ft | 181 kts | 324° |
| 2026-05-07 11:04 | 37.35820 | 126.51825 | 1970 ft | 162 kts | 323° |
| 2026-05-07 11:04 | 37.36711 | 126.51032 | 1847 ft | 154 kts | 322° |
| 2026-05-07 11:04 | 37.37561 | 126.50262 | 1665 ft | 149 kts | 322° |
| 2026-05-07 11:04 | 37.38415 | 126.49487 | 1482 ft | 150 kts | 321° |
| 2026-05-07 11:05 | 37.39260 | 126.48721 | 1280 ft | 150 kts | 321° |
| 2026-05-07 11:05 | 37.40121 | 126.47945 | 1074 ft | 152 kts | 322° |
| 2026-05-07 11:05 | 37.40975 | 126.47168 | 849 ft | 155 kts | 323° |
| 2026-05-07 11:05 | 37.41835 | 126.46408 | 609 ft | 151 kts | 322° |
| 2026-05-07 11:06 | 37.42708 | 126.45635 | 440 ft | 154 kts | 323° |
| 2026-05-07 11:06 | 37.43636 | 126.44813 | 266 ft | 167 kts | 324° |
| 2026-05-07 11:06 | 37.44555 | 126.43985 | 45 ft | 163 kts | 324° |
| 2026-05-07 11:06 | 37.45358 | 126.43263 | 33 ft | 102 kts | 324° |
| 2026-05-07 11:07 | 37.45822 | 126.42844 | 33 ft | 54 kts | 326° |
| 2026-05-07 11:07 | 37.46018 | 126.42725 | 33 ft | 17 kts | 351° |
| 2026-05-07 11:07 | 37.46121 | 126.42707 | 33 ft | 16 kts | 352° |
| 2026-05-07 11:07 | 37.46205 | 126.42722 | 33 ft | 5 kts | 59° |
| 2026-05-07 11:08 | 37.46188 | 126.42776 | 33 ft | 8 kts | 138° |
| 2026-05-07 11:08 | 37.46131 | 126.42838 | 33 ft | 12 kts | 141° |
| 2026-05-07 11:08 | 37.46055 | 126.42908 | 33 ft | 15 kts | 144° |
| 2026-05-07 11:08 | 37.45960 | 126.42991 | 33 ft | 18 kts | 145° |
| 2026-05-07 11:09 | 37.45877 | 126.43072 | 33 ft | 6 kts | 107° |
| 2026-05-07 11:09 | 37.45896 | 126.43146 | 33 ft | 10 kts | 59° |
| 2026-05-07 11:09 | 37.45943 | 126.43230 | 33 ft | 13 kts | 55° |
| 2026-05-07 11:09 | 37.45998 | 126.43328 | 33 ft | 16 kts | 54° |
| 2026-05-07 11:10 | 37.46061 | 126.43436 | 33 ft | 19 kts | 54° |
| 2026-05-07 11:10 | 37.46143 | 126.43583 | 33 ft | 14 kts | 55° |
| 2026-05-07 11:10 | 37.46198 | 126.43680 | 33 ft | 16 kts | 55° |
| 2026-05-07 11:10 | 37.46255 | 126.43781 | 33 ft | 19 kts | 55° |
| 2026-05-07 11:11 | 37.46341 | 126.43935 | 33 ft | 22 kts | 55° |
| 2026-05-07 11:11 | 37.46423 | 126.44077 | 33 ft | 25 kts | 54° |
| 2026-05-07 11:11 | 37.46523 | 126.44254 | 33 ft | 27 kts | 54° |